<?xml version="1.0" encoding="UTF-8" standalone="no" ?>
<gpx xmlns="http://www.topografix.com/GPX/1/1" xmlns:xsi="http://www.w3.org/2001/XMLSchema-instance" xsi:schemaLocation="http://www.topografix.com/GPX/1/1 http://www.topografix.com/GPX/1/1/gpx.xsd" version="1.1" creator="VisuGPX - https://www.visugpx.com">
  <metadata>
    <name>ASLPM marche à St Xandre le 4 Mai 2015</name>
    <desc><![CDATA[Marche à St Xandre le 4 Mai 2015]]></desc>
  </metadata>
  <trk>
    <name><![CDATA[Marche St Xandre]]></name>
    <trkseg>
      <trkpt lat="46.20597" lon="-1.09493">
        <ele>17.5</ele>
        <time>2015-05-04T07:05:32.000Z</time>
      </trkpt>
      <trkpt lat="46.20593" lon="-1.09492">
        <ele>17.7</ele>
        <time>2015-05-04T07:05:37.000Z</time>
      </trkpt>
      <trkpt lat="46.20592" lon="-1.09491">
        <ele>17.7</ele>
        <time>2015-05-04T07:05:38.000Z</time>
      </trkpt>
      <trkpt lat="46.20586" lon="-1.09485">
        <ele>17.9</ele>
        <time>2015-05-04T07:05:46.000Z</time>
      </trkpt>
      <trkpt lat="46.20584" lon="-1.09483">
        <ele>18</ele>
        <time>2015-05-04T07:05:48.000Z</time>
      </trkpt>
      <trkpt lat="46.2058" lon="-1.09465">
        <ele>18</ele>
        <time>2015-05-04T07:06:00.000Z</time>
      </trkpt>
      <trkpt lat="46.2058" lon="-1.09457">
        <ele>17.9</ele>
        <time>2015-05-04T07:06:06.000Z</time>
      </trkpt>
      <trkpt lat="46.20579" lon="-1.09447">
        <ele>17.9</ele>
        <time>2015-05-04T07:06:12.000Z</time>
      </trkpt>
      <trkpt lat="46.20579" lon="-1.09414">
        <ele>17</ele>
        <time>2015-05-04T07:06:27.000Z</time>
      </trkpt>
      <trkpt lat="46.2058" lon="-1.09394">
        <ele>17</ele>
        <time>2015-05-04T07:06:37.000Z</time>
      </trkpt>
      <trkpt lat="46.20582" lon="-1.09387">
        <ele>17</ele>
        <time>2015-05-04T07:06:43.000Z</time>
      </trkpt>
      <trkpt lat="46.20582" lon="-1.09386">
        <ele>17</ele>
        <time>2015-05-04T07:06:46.000Z</time>
      </trkpt>
      <trkpt lat="46.2058" lon="-1.09376">
        <ele>17</ele>
        <time>2015-05-04T07:06:51.000Z</time>
      </trkpt>
      <trkpt lat="46.20575" lon="-1.09353">
        <ele>17</ele>
        <time>2015-05-04T07:07:02.000Z</time>
      </trkpt>
      <trkpt lat="46.20572" lon="-1.09334">
        <ele>17</ele>
        <time>2015-05-04T07:07:11.000Z</time>
      </trkpt>
      <trkpt lat="46.20571" lon="-1.09317">
        <ele>17</ele>
        <time>2015-05-04T07:07:19.000Z</time>
      </trkpt>
      <trkpt lat="46.20571" lon="-1.093">
        <ele>16.9</ele>
        <time>2015-05-04T07:07:28.000Z</time>
      </trkpt>
      <trkpt lat="46.20565" lon="-1.09287">
        <ele>16.8</ele>
        <time>2015-05-04T07:07:36.000Z</time>
      </trkpt>
      <trkpt lat="46.20558" lon="-1.09274">
        <ele>16.8</ele>
        <time>2015-05-04T07:07:44.000Z</time>
      </trkpt>
      <trkpt lat="46.20555" lon="-1.09259">
        <ele>16.3</ele>
        <time>2015-05-04T07:07:52.000Z</time>
      </trkpt>
      <trkpt lat="46.2055" lon="-1.09237">
        <ele>16</ele>
        <time>2015-05-04T07:08:03.000Z</time>
      </trkpt>
      <trkpt lat="46.20547" lon="-1.09221">
        <ele>16</ele>
        <time>2015-05-04T07:08:11.000Z</time>
      </trkpt>
      <trkpt lat="46.20542" lon="-1.09199">
        <ele>16</ele>
        <time>2015-05-04T07:08:23.000Z</time>
      </trkpt>
      <trkpt lat="46.20537" lon="-1.0918">
        <ele>16</ele>
        <time>2015-05-04T07:08:33.000Z</time>
      </trkpt>
      <trkpt lat="46.2053" lon="-1.09162">
        <ele>16</ele>
        <time>2015-05-04T07:08:43.000Z</time>
      </trkpt>
      <trkpt lat="46.20522" lon="-1.09148">
        <ele>16</ele>
        <time>2015-05-04T07:08:53.000Z</time>
      </trkpt>
      <trkpt lat="46.20511" lon="-1.09139">
        <ele>16</ele>
        <time>2015-05-04T07:09:03.000Z</time>
      </trkpt>
      <trkpt lat="46.20499" lon="-1.09133">
        <ele>16</ele>
        <time>2015-05-04T07:09:13.000Z</time>
      </trkpt>
      <trkpt lat="46.20488" lon="-1.09126">
        <ele>16.2</ele>
        <time>2015-05-04T07:09:23.000Z</time>
      </trkpt>
      <trkpt lat="46.20481" lon="-1.09114">
        <ele>16.1</ele>
        <time>2015-05-04T07:09:31.000Z</time>
      </trkpt>
      <trkpt lat="46.20471" lon="-1.09099">
        <ele>15.6</ele>
        <time>2015-05-04T07:09:42.000Z</time>
      </trkpt>
      <trkpt lat="46.20467" lon="-1.09087">
        <ele>15.1</ele>
        <time>2015-05-04T07:09:50.000Z</time>
      </trkpt>
      <trkpt lat="46.20465" lon="-1.0907">
        <ele>15.4</ele>
        <time>2015-05-04T07:10:00.000Z</time>
      </trkpt>
      <trkpt lat="46.20464" lon="-1.09052">
        <ele>15.7</ele>
        <time>2015-05-04T07:10:10.000Z</time>
      </trkpt>
      <trkpt lat="46.20463" lon="-1.09031">
        <ele>15.7</ele>
        <time>2015-05-04T07:10:22.000Z</time>
      </trkpt>
      <trkpt lat="46.20462" lon="-1.09006">
        <ele>13.5</ele>
        <time>2015-05-04T07:10:35.000Z</time>
      </trkpt>
      <trkpt lat="46.20461" lon="-1.08981">
        <ele>12.8</ele>
        <time>2015-05-04T07:10:48.000Z</time>
      </trkpt>
      <trkpt lat="46.2046" lon="-1.08962">
        <ele>13.5</ele>
        <time>2015-05-04T07:10:58.000Z</time>
      </trkpt>
      <trkpt lat="46.20459" lon="-1.08941">
        <ele>14.5</ele>
        <time>2015-05-04T07:11:09.000Z</time>
      </trkpt>
      <trkpt lat="46.20459" lon="-1.0892">
        <ele>14.1</ele>
        <time>2015-05-04T07:11:19.000Z</time>
      </trkpt>
      <trkpt lat="46.20459" lon="-1.08904">
        <ele>13.3</ele>
        <time>2015-05-04T07:11:28.000Z</time>
      </trkpt>
      <trkpt lat="46.20458" lon="-1.08891">
        <ele>12.6</ele>
        <time>2015-05-04T07:11:36.000Z</time>
      </trkpt>
      <trkpt lat="46.20457" lon="-1.08877">
        <ele>12.3</ele>
        <time>2015-05-04T07:11:44.000Z</time>
      </trkpt>
      <trkpt lat="46.20456" lon="-1.08854">
        <ele>12</ele>
        <time>2015-05-04T07:11:56.000Z</time>
      </trkpt>
      <trkpt lat="46.20457" lon="-1.08836">
        <ele>12</ele>
        <time>2015-05-04T07:12:05.000Z</time>
      </trkpt>
      <trkpt lat="46.20462" lon="-1.08817">
        <ele>12</ele>
        <time>2015-05-04T07:12:15.000Z</time>
      </trkpt>
      <trkpt lat="46.20471" lon="-1.08803">
        <ele>11.9</ele>
        <time>2015-05-04T07:12:24.000Z</time>
      </trkpt>
      <trkpt lat="46.20481" lon="-1.08801">
        <ele>11.5</ele>
        <time>2015-05-04T07:12:31.000Z</time>
      </trkpt>
      <trkpt lat="46.20484" lon="-1.08802">
        <ele>11.4</ele>
        <time>2015-05-04T07:12:33.000Z</time>
      </trkpt>
      <trkpt lat="46.20498" lon="-1.088">
        <ele>10.9</ele>
        <time>2015-05-04T07:12:43.000Z</time>
      </trkpt>
      <trkpt lat="46.2051" lon="-1.08813">
        <ele>10.9</ele>
        <time>2015-05-04T07:12:54.000Z</time>
      </trkpt>
      <trkpt lat="46.20516" lon="-1.08831">
        <ele>11.3</ele>
        <time>2015-05-04T07:13:04.000Z</time>
      </trkpt>
      <trkpt lat="46.20526" lon="-1.08876">
        <ele>12</ele>
        <time>2015-05-04T07:13:28.000Z</time>
      </trkpt>
      <trkpt lat="46.20531" lon="-1.08896">
        <ele>12</ele>
        <time>2015-05-04T07:13:39.000Z</time>
      </trkpt>
      <trkpt lat="46.20539" lon="-1.08909">
        <ele>12.4</ele>
        <time>2015-05-04T07:13:48.000Z</time>
      </trkpt>
      <trkpt lat="46.2055" lon="-1.08916">
        <ele>12.9</ele>
        <time>2015-05-04T07:13:56.000Z</time>
      </trkpt>
      <trkpt lat="46.20562" lon="-1.08916">
        <ele>12.7</ele>
        <time>2015-05-04T07:14:05.000Z</time>
      </trkpt>
      <trkpt lat="46.20579" lon="-1.08913">
        <ele>11.7</ele>
        <time>2015-05-04T07:14:17.000Z</time>
      </trkpt>
      <trkpt lat="46.20597" lon="-1.0891">
        <ele>11.3</ele>
        <time>2015-05-04T07:14:30.000Z</time>
      </trkpt>
      <trkpt lat="46.20613" lon="-1.08907">
        <ele>11</ele>
        <time>2015-05-04T07:14:41.000Z</time>
      </trkpt>
      <trkpt lat="46.20632" lon="-1.08905">
        <ele>10.6</ele>
        <time>2015-05-04T07:14:54.000Z</time>
      </trkpt>
      <trkpt lat="46.20649" lon="-1.08903">
        <ele>10.5</ele>
        <time>2015-05-04T07:15:06.000Z</time>
      </trkpt>
      <trkpt lat="46.20663" lon="-1.08902">
        <ele>10.5</ele>
        <time>2015-05-04T07:15:16.000Z</time>
      </trkpt>
      <trkpt lat="46.20682" lon="-1.08901">
        <ele>10.4</ele>
        <time>2015-05-04T07:15:29.000Z</time>
      </trkpt>
      <trkpt lat="46.20701" lon="-1.08901">
        <ele>10.4</ele>
        <time>2015-05-04T07:15:42.000Z</time>
      </trkpt>
      <trkpt lat="46.20716" lon="-1.089">
        <ele>10.4</ele>
        <time>2015-05-04T07:15:53.000Z</time>
      </trkpt>
      <trkpt lat="46.20734" lon="-1.089">
        <ele>10.7</ele>
        <time>2015-05-04T07:16:06.000Z</time>
      </trkpt>
      <trkpt lat="46.20753" lon="-1.089">
        <ele>11.1</ele>
        <time>2015-05-04T07:16:19.000Z</time>
      </trkpt>
      <trkpt lat="46.20772" lon="-1.08901">
        <ele>11.8</ele>
        <time>2015-05-04T07:16:33.000Z</time>
      </trkpt>
      <trkpt lat="46.20788" lon="-1.089">
        <ele>12.4</ele>
        <time>2015-05-04T07:16:44.000Z</time>
      </trkpt>
      <trkpt lat="46.208" lon="-1.08893">
        <ele>12.8</ele>
        <time>2015-05-04T07:16:53.000Z</time>
      </trkpt>
      <trkpt lat="46.20809" lon="-1.08877">
        <ele>13</ele>
        <time>2015-05-04T07:17:03.000Z</time>
      </trkpt>
      <trkpt lat="46.20816" lon="-1.0886">
        <ele>13</ele>
        <time>2015-05-04T07:17:13.000Z</time>
      </trkpt>
      <trkpt lat="46.20829" lon="-1.08822">
        <ele>12.8</ele>
        <time>2015-05-04T07:17:33.000Z</time>
      </trkpt>
      <trkpt lat="46.20836" lon="-1.088">
        <ele>12.8</ele>
        <time>2015-05-04T07:17:45.000Z</time>
      </trkpt>
      <trkpt lat="46.20844" lon="-1.08778">
        <ele>12</ele>
        <time>2015-05-04T07:17:57.000Z</time>
      </trkpt>
      <trkpt lat="46.20851" lon="-1.08757">
        <ele>12</ele>
        <time>2015-05-04T07:18:08.000Z</time>
      </trkpt>
      <trkpt lat="46.20859" lon="-1.08733">
        <ele>12</ele>
        <time>2015-05-04T07:18:21.000Z</time>
      </trkpt>
      <trkpt lat="46.20865" lon="-1.08715">
        <ele>11.6</ele>
        <time>2015-05-04T07:18:31.000Z</time>
      </trkpt>
      <trkpt lat="46.20873" lon="-1.08691">
        <ele>11</ele>
        <time>2015-05-04T07:18:44.000Z</time>
      </trkpt>
      <trkpt lat="46.2088" lon="-1.0867">
        <ele>11</ele>
        <time>2015-05-04T07:18:55.000Z</time>
      </trkpt>
      <trkpt lat="46.20886" lon="-1.08652">
        <ele>10.5</ele>
        <time>2015-05-04T07:19:05.000Z</time>
      </trkpt>
      <trkpt lat="46.20893" lon="-1.08632">
        <ele>10</ele>
        <time>2015-05-04T07:19:16.000Z</time>
      </trkpt>
      <trkpt lat="46.209" lon="-1.08609">
        <ele>10</ele>
        <time>2015-05-04T07:19:28.000Z</time>
      </trkpt>
      <trkpt lat="46.20908" lon="-1.08585">
        <ele>10</ele>
        <time>2015-05-04T07:19:41.000Z</time>
      </trkpt>
      <trkpt lat="46.20915" lon="-1.08565">
        <ele>9.3</ele>
        <time>2015-05-04T07:19:52.000Z</time>
      </trkpt>
      <trkpt lat="46.20921" lon="-1.08547">
        <ele>9</ele>
        <time>2015-05-04T07:20:02.000Z</time>
      </trkpt>
      <trkpt lat="46.20928" lon="-1.08529">
        <ele>9</ele>
        <time>2015-05-04T07:20:12.000Z</time>
      </trkpt>
      <trkpt lat="46.20934" lon="-1.08511">
        <ele>9</ele>
        <time>2015-05-04T07:20:22.000Z</time>
      </trkpt>
      <trkpt lat="46.20941" lon="-1.08491">
        <ele>9</ele>
        <time>2015-05-04T07:20:33.000Z</time>
      </trkpt>
      <trkpt lat="46.20948" lon="-1.0847">
        <ele>8.8</ele>
        <time>2015-05-04T07:20:44.000Z</time>
      </trkpt>
      <trkpt lat="46.20955" lon="-1.08447">
        <ele>8.1</ele>
        <time>2015-05-04T07:20:56.000Z</time>
      </trkpt>
      <trkpt lat="46.20963" lon="-1.08425">
        <ele>8</ele>
        <time>2015-05-04T07:21:08.000Z</time>
      </trkpt>
      <trkpt lat="46.20968" lon="-1.08406">
        <ele>7.9</ele>
        <time>2015-05-04T07:21:18.000Z</time>
      </trkpt>
      <trkpt lat="46.20975" lon="-1.08388">
        <ele>7.9</ele>
        <time>2015-05-04T07:21:28.000Z</time>
      </trkpt>
      <trkpt lat="46.20979" lon="-1.08375">
        <ele>7.4</ele>
        <time>2015-05-04T07:21:35.000Z</time>
      </trkpt>
      <trkpt lat="46.20982" lon="-1.08364">
        <ele>7.1</ele>
        <time>2015-05-04T07:21:41.000Z</time>
      </trkpt>
      <trkpt lat="46.20988" lon="-1.08349">
        <ele>7</ele>
        <time>2015-05-04T07:21:49.000Z</time>
      </trkpt>
      <trkpt lat="46.20991" lon="-1.08339">
        <ele>7</ele>
        <time>2015-05-04T07:21:54.000Z</time>
      </trkpt>
      <trkpt lat="46.20992" lon="-1.08336">
        <ele>7</ele>
        <time>2015-05-04T07:21:56.000Z</time>
      </trkpt>
      <trkpt lat="46.20996" lon="-1.08325">
        <ele>7</ele>
        <time>2015-05-04T07:22:02.000Z</time>
      </trkpt>
      <trkpt lat="46.21" lon="-1.08314">
        <ele>7</ele>
        <time>2015-05-04T07:22:08.000Z</time>
      </trkpt>
      <trkpt lat="46.21001" lon="-1.08312">
        <ele>7</ele>
        <time>2015-05-04T07:22:09.000Z</time>
      </trkpt>
      <trkpt lat="46.21006" lon="-1.08298">
        <ele>7</ele>
        <time>2015-05-04T07:22:17.000Z</time>
      </trkpt>
      <trkpt lat="46.21012" lon="-1.08281">
        <ele>7</ele>
        <time>2015-05-04T07:22:26.000Z</time>
      </trkpt>
      <trkpt lat="46.21019" lon="-1.08261">
        <ele>7</ele>
        <time>2015-05-04T07:22:37.000Z</time>
      </trkpt>
      <trkpt lat="46.21025" lon="-1.08244">
        <ele>7</ele>
        <time>2015-05-04T07:22:46.000Z</time>
      </trkpt>
      <trkpt lat="46.21029" lon="-1.08233">
        <ele>7</ele>
        <time>2015-05-04T07:22:52.000Z</time>
      </trkpt>
      <trkpt lat="46.21034" lon="-1.08218">
        <ele>7</ele>
        <time>2015-05-04T07:23:00.000Z</time>
      </trkpt>
      <trkpt lat="46.2104" lon="-1.08199">
        <ele>7</ele>
        <time>2015-05-04T07:23:10.000Z</time>
      </trkpt>
      <trkpt lat="46.21046" lon="-1.08181">
        <ele>6.8</ele>
        <time>2015-05-04T07:23:20.000Z</time>
      </trkpt>
      <trkpt lat="46.21053" lon="-1.08163">
        <ele>6.9</ele>
        <time>2015-05-04T07:23:30.000Z</time>
      </trkpt>
      <trkpt lat="46.21061" lon="-1.08145">
        <ele>7</ele>
        <time>2015-05-04T07:23:40.000Z</time>
      </trkpt>
      <trkpt lat="46.21068" lon="-1.0813">
        <ele>7</ele>
        <time>2015-05-04T07:23:49.000Z</time>
      </trkpt>
      <trkpt lat="46.21078" lon="-1.08116">
        <ele>7</ele>
        <time>2015-05-04T07:23:58.000Z</time>
      </trkpt>
      <trkpt lat="46.21089" lon="-1.08106">
        <ele>7</ele>
        <time>2015-05-04T07:24:07.000Z</time>
      </trkpt>
      <trkpt lat="46.21099" lon="-1.08097">
        <ele>7</ele>
        <time>2015-05-04T07:24:15.000Z</time>
      </trkpt>
      <trkpt lat="46.21114" lon="-1.08086">
        <ele>7</ele>
        <time>2015-05-04T07:24:27.000Z</time>
      </trkpt>
      <trkpt lat="46.21125" lon="-1.08076">
        <ele>6.9</ele>
        <time>2015-05-04T07:24:36.000Z</time>
      </trkpt>
      <trkpt lat="46.21136" lon="-1.08067">
        <ele>6.9</ele>
        <time>2015-05-04T07:24:45.000Z</time>
      </trkpt>
      <trkpt lat="46.21147" lon="-1.08053">
        <ele>6.7</ele>
        <time>2015-05-04T07:24:55.000Z</time>
      </trkpt>
      <trkpt lat="46.21155" lon="-1.08043">
        <ele>6.5</ele>
        <time>2015-05-04T07:25:02.000Z</time>
      </trkpt>
      <trkpt lat="46.21162" lon="-1.08032">
        <ele>6.7</ele>
        <time>2015-05-04T07:25:09.000Z</time>
      </trkpt>
      <trkpt lat="46.2118" lon="-1.08006">
        <ele>6.1</ele>
        <time>2015-05-04T07:25:27.000Z</time>
      </trkpt>
      <trkpt lat="46.21184" lon="-1.07998">
        <ele>6</ele>
        <time>2015-05-04T07:25:32.000Z</time>
      </trkpt>
      <trkpt lat="46.21194" lon="-1.07982">
        <ele>6</ele>
        <time>2015-05-04T07:25:42.000Z</time>
      </trkpt>
      <trkpt lat="46.21201" lon="-1.07968">
        <ele>6</ele>
        <time>2015-05-04T07:25:50.000Z</time>
      </trkpt>
      <trkpt lat="46.21209" lon="-1.07954">
        <ele>6</ele>
        <time>2015-05-04T07:25:59.000Z</time>
      </trkpt>
      <trkpt lat="46.21215" lon="-1.07941">
        <ele>6</ele>
        <time>2015-05-04T07:26:06.000Z</time>
      </trkpt>
      <trkpt lat="46.2122" lon="-1.07929">
        <ele>5.9</ele>
        <time>2015-05-04T07:26:13.000Z</time>
      </trkpt>
      <trkpt lat="46.21225" lon="-1.07908">
        <ele>6</ele>
        <time>2015-05-04T07:26:24.000Z</time>
      </trkpt>
      <trkpt lat="46.2123" lon="-1.0789">
        <ele>6</ele>
        <time>2015-05-04T07:26:33.000Z</time>
      </trkpt>
      <trkpt lat="46.21235" lon="-1.07874">
        <ele>5.7</ele>
        <time>2015-05-04T07:26:41.000Z</time>
      </trkpt>
      <trkpt lat="46.21242" lon="-1.07858">
        <ele>5.7</ele>
        <time>2015-05-04T07:26:50.000Z</time>
      </trkpt>
      <trkpt lat="46.21252" lon="-1.07845">
        <ele>5.4</ele>
        <time>2015-05-04T07:26:59.000Z</time>
      </trkpt>
      <trkpt lat="46.21263" lon="-1.07834">
        <ele>5</ele>
        <time>2015-05-04T07:27:09.000Z</time>
      </trkpt>
      <trkpt lat="46.21276" lon="-1.07822">
        <ele>5</ele>
        <time>2015-05-04T07:27:19.000Z</time>
      </trkpt>
      <trkpt lat="46.2129" lon="-1.07813">
        <ele>5</ele>
        <time>2015-05-04T07:27:30.000Z</time>
      </trkpt>
      <trkpt lat="46.21301" lon="-1.07807">
        <ele>5</ele>
        <time>2015-05-04T07:27:38.000Z</time>
      </trkpt>
      <trkpt lat="46.21317" lon="-1.07798">
        <ele>5</ele>
        <time>2015-05-04T07:27:50.000Z</time>
      </trkpt>
      <trkpt lat="46.21334" lon="-1.0779">
        <ele>5</ele>
        <time>2015-05-04T07:28:03.000Z</time>
      </trkpt>
      <trkpt lat="46.21344" lon="-1.07785">
        <ele>5</ele>
        <time>2015-05-04T07:28:11.000Z</time>
      </trkpt>
      <trkpt lat="46.21361" lon="-1.07781">
        <ele>5</ele>
        <time>2015-05-04T07:28:24.000Z</time>
      </trkpt>
      <trkpt lat="46.21372" lon="-1.07777">
        <ele>5</ele>
        <time>2015-05-04T07:28:32.000Z</time>
      </trkpt>
      <trkpt lat="46.2139" lon="-1.07772">
        <ele>5</ele>
        <time>2015-05-04T07:28:45.000Z</time>
      </trkpt>
      <trkpt lat="46.21404" lon="-1.07766">
        <ele>5.2</ele>
        <time>2015-05-04T07:28:55.000Z</time>
      </trkpt>
      <trkpt lat="46.21416" lon="-1.0776">
        <ele>5.6</ele>
        <time>2015-05-04T07:29:05.000Z</time>
      </trkpt>
      <trkpt lat="46.21423" lon="-1.07753">
        <ele>5.7</ele>
        <time>2015-05-04T07:29:13.000Z</time>
      </trkpt>
      <trkpt lat="46.21423" lon="-1.07753">
        <ele>5.7</ele>
        <time>2015-05-04T07:29:14.000Z</time>
      </trkpt>
      <trkpt lat="46.21424" lon="-1.07751">
        <ele>5.7</ele>
        <time>2015-05-04T07:29:22.000Z</time>
      </trkpt>
      <trkpt lat="46.21423" lon="-1.07752">
        <ele>5.7</ele>
        <time>2015-05-04T07:29:32.000Z</time>
      </trkpt>
      <trkpt lat="46.21425" lon="-1.07744">
        <ele>5.7</ele>
        <time>2015-05-04T07:32:24.000Z</time>
      </trkpt>
      <trkpt lat="46.21427" lon="-1.07739">
        <ele>5.6</ele>
        <time>2015-05-04T07:32:51.000Z</time>
      </trkpt>
      <trkpt lat="46.21428" lon="-1.07729">
        <ele>5.6</ele>
        <time>2015-05-04T07:32:58.000Z</time>
      </trkpt>
      <trkpt lat="46.21428" lon="-1.07714">
        <ele>5.4</ele>
        <time>2015-05-04T07:33:06.000Z</time>
      </trkpt>
      <trkpt lat="46.21429" lon="-1.077">
        <ele>5.1</ele>
        <time>2015-05-04T07:33:13.000Z</time>
      </trkpt>
      <trkpt lat="46.21431" lon="-1.07679">
        <ele>4.7</ele>
        <time>2015-05-04T07:33:23.000Z</time>
      </trkpt>
      <trkpt lat="46.21434" lon="-1.07662">
        <ele>4.7</ele>
        <time>2015-05-04T07:33:32.000Z</time>
      </trkpt>
      <trkpt lat="46.21439" lon="-1.07642">
        <ele>5</ele>
        <time>2015-05-04T07:33:42.000Z</time>
      </trkpt>
      <trkpt lat="46.21445" lon="-1.07623">
        <ele>5</ele>
        <time>2015-05-04T07:33:53.000Z</time>
      </trkpt>
      <trkpt lat="46.21452" lon="-1.0761">
        <ele>5</ele>
        <time>2015-05-04T07:34:01.000Z</time>
      </trkpt>
      <trkpt lat="46.21464" lon="-1.07595">
        <ele>4.8</ele>
        <time>2015-05-04T07:34:12.000Z</time>
      </trkpt>
      <trkpt lat="46.21476" lon="-1.07578">
        <ele>4.8</ele>
        <time>2015-05-04T07:34:24.000Z</time>
      </trkpt>
      <trkpt lat="46.21488" lon="-1.07558">
        <ele>4.6</ele>
        <time>2015-05-04T07:34:36.000Z</time>
      </trkpt>
      <trkpt lat="46.21496" lon="-1.07543">
        <ele>4.9</ele>
        <time>2015-05-04T07:34:45.000Z</time>
      </trkpt>
      <trkpt lat="46.21503" lon="-1.0753">
        <ele>5</ele>
        <time>2015-05-04T07:34:53.000Z</time>
      </trkpt>
      <trkpt lat="46.2151" lon="-1.07516">
        <ele>4.7</ele>
        <time>2015-05-04T07:35:02.000Z</time>
      </trkpt>
      <trkpt lat="46.2152" lon="-1.07496">
        <ele>4.7</ele>
        <time>2015-05-04T07:35:14.000Z</time>
      </trkpt>
      <trkpt lat="46.21528" lon="-1.07478">
        <ele>5</ele>
        <time>2015-05-04T07:35:25.000Z</time>
      </trkpt>
      <trkpt lat="46.21541" lon="-1.07458">
        <ele>4.7</ele>
        <time>2015-05-04T07:35:39.000Z</time>
      </trkpt>
      <trkpt lat="46.2155" lon="-1.07444">
        <ele>4.8</ele>
        <time>2015-05-04T07:35:49.000Z</time>
      </trkpt>
      <trkpt lat="46.21559" lon="-1.0743">
        <ele>4.5</ele>
        <time>2015-05-04T07:35:58.000Z</time>
      </trkpt>
      <trkpt lat="46.21569" lon="-1.07416">
        <ele>4</ele>
        <time>2015-05-04T07:36:08.000Z</time>
      </trkpt>
      <trkpt lat="46.21576" lon="-1.07402">
        <ele>4</ele>
        <time>2015-05-04T07:36:17.000Z</time>
      </trkpt>
      <trkpt lat="46.21588" lon="-1.07382">
        <ele>4.2</ele>
        <time>2015-05-04T07:36:30.000Z</time>
      </trkpt>
      <trkpt lat="46.21598" lon="-1.07363">
        <ele>4.5</ele>
        <time>2015-05-04T07:36:42.000Z</time>
      </trkpt>
      <trkpt lat="46.21609" lon="-1.07344">
        <ele>4.9</ele>
        <time>2015-05-04T07:36:55.000Z</time>
      </trkpt>
      <trkpt lat="46.21615" lon="-1.07333">
        <ele>5</ele>
        <time>2015-05-04T07:37:02.000Z</time>
      </trkpt>
      <trkpt lat="46.21622" lon="-1.07318">
        <ele>5</ele>
        <time>2015-05-04T07:37:11.000Z</time>
      </trkpt>
      <trkpt lat="46.21628" lon="-1.073">
        <ele>4.8</ele>
        <time>2015-05-04T07:37:21.000Z</time>
      </trkpt>
      <trkpt lat="46.21635" lon="-1.07279">
        <ele>4.7</ele>
        <time>2015-05-04T07:37:32.000Z</time>
      </trkpt>
      <trkpt lat="46.21642" lon="-1.0726">
        <ele>4.5</ele>
        <time>2015-05-04T07:37:43.000Z</time>
      </trkpt>
      <trkpt lat="46.21649" lon="-1.07245">
        <ele>4.4</ele>
        <time>2015-05-04T07:37:52.000Z</time>
      </trkpt>
      <trkpt lat="46.21656" lon="-1.0723">
        <ele>4.6</ele>
        <time>2015-05-04T07:38:01.000Z</time>
      </trkpt>
      <trkpt lat="46.21662" lon="-1.07214">
        <ele>4.8</ele>
        <time>2015-05-04T07:38:10.000Z</time>
      </trkpt>
      <trkpt lat="46.21663" lon="-1.07195">
        <ele>4.8</ele>
        <time>2015-05-04T07:38:19.000Z</time>
      </trkpt>
      <trkpt lat="46.21664" lon="-1.07168">
        <ele>4.8</ele>
        <time>2015-05-04T07:38:32.000Z</time>
      </trkpt>
      <trkpt lat="46.21664" lon="-1.07148">
        <ele>4.2</ele>
        <time>2015-05-04T07:38:42.000Z</time>
      </trkpt>
      <trkpt lat="46.21663" lon="-1.0713">
        <ele>4.1</ele>
        <time>2015-05-04T07:38:51.000Z</time>
      </trkpt>
      <trkpt lat="46.21667" lon="-1.07108">
        <ele>4.9</ele>
        <time>2015-05-04T07:39:02.000Z</time>
      </trkpt>
      <trkpt lat="46.21674" lon="-1.07086">
        <ele>4.3</ele>
        <time>2015-05-04T07:39:14.000Z</time>
      </trkpt>
      <trkpt lat="46.21684" lon="-1.07066">
        <ele>4.2</ele>
        <time>2015-05-04T07:39:27.000Z</time>
      </trkpt>
      <trkpt lat="46.21696" lon="-1.07044">
        <ele>4</ele>
        <time>2015-05-04T07:39:40.000Z</time>
      </trkpt>
      <trkpt lat="46.21703" lon="-1.07031">
        <ele>4</ele>
        <time>2015-05-04T07:39:48.000Z</time>
      </trkpt>
      <trkpt lat="46.21715" lon="-1.07012">
        <ele>3.9</ele>
        <time>2015-05-04T07:40:00.000Z</time>
      </trkpt>
      <trkpt lat="46.21725" lon="-1.06996">
        <ele>4</ele>
        <time>2015-05-04T07:40:11.000Z</time>
      </trkpt>
      <trkpt lat="46.21734" lon="-1.06986">
        <ele>4</ele>
        <time>2015-05-04T07:40:19.000Z</time>
      </trkpt>
      <trkpt lat="46.21745" lon="-1.06981">
        <ele>4</ele>
        <time>2015-05-04T07:40:28.000Z</time>
      </trkpt>
      <trkpt lat="46.21762" lon="-1.06978">
        <ele>4.1</ele>
        <time>2015-05-04T07:40:40.000Z</time>
      </trkpt>
      <trkpt lat="46.21772" lon="-1.06979">
        <ele>4.2</ele>
        <time>2015-05-04T07:40:48.000Z</time>
      </trkpt>
      <trkpt lat="46.21785" lon="-1.06976">
        <ele>4.4</ele>
        <time>2015-05-04T07:40:58.000Z</time>
      </trkpt>
      <trkpt lat="46.21793" lon="-1.06967">
        <ele>4.4</ele>
        <time>2015-05-04T07:41:05.000Z</time>
      </trkpt>
      <trkpt lat="46.21794" lon="-1.06961">
        <ele>4.3</ele>
        <time>2015-05-04T07:41:08.000Z</time>
      </trkpt>
      <trkpt lat="46.21795" lon="-1.06953">
        <ele>4.2</ele>
        <time>2015-05-04T07:41:12.000Z</time>
      </trkpt>
      <trkpt lat="46.21796" lon="-1.06933">
        <ele>4</ele>
        <time>2015-05-04T07:41:22.000Z</time>
      </trkpt>
      <trkpt lat="46.21796" lon="-1.06909">
        <ele>3.9</ele>
        <time>2015-05-04T07:41:33.000Z</time>
      </trkpt>
      <trkpt lat="46.21795" lon="-1.06886">
        <ele>3.6</ele>
        <time>2015-05-04T07:41:44.000Z</time>
      </trkpt>
      <trkpt lat="46.21793" lon="-1.06872">
        <ele>3.2</ele>
        <time>2015-05-04T07:41:51.000Z</time>
      </trkpt>
      <trkpt lat="46.21789" lon="-1.06852">
        <ele>3</ele>
        <time>2015-05-04T07:42:01.000Z</time>
      </trkpt>
      <trkpt lat="46.21784" lon="-1.06836">
        <ele>3</ele>
        <time>2015-05-04T07:42:10.000Z</time>
      </trkpt>
      <trkpt lat="46.2178" lon="-1.06825">
        <ele>3</ele>
        <time>2015-05-04T07:42:17.000Z</time>
      </trkpt>
      <trkpt lat="46.21774" lon="-1.06805">
        <ele>3</ele>
        <time>2015-05-04T07:42:27.000Z</time>
      </trkpt>
      <trkpt lat="46.21769" lon="-1.06791">
        <ele>3</ele>
        <time>2015-05-04T07:42:35.000Z</time>
      </trkpt>
      <trkpt lat="46.21765" lon="-1.0678">
        <ele>3</ele>
        <time>2015-05-04T07:42:41.000Z</time>
      </trkpt>
      <trkpt lat="46.2176" lon="-1.06767">
        <ele>3.3</ele>
        <time>2015-05-04T07:42:49.000Z</time>
      </trkpt>
      <trkpt lat="46.21756" lon="-1.06756">
        <ele>3.6</ele>
        <time>2015-05-04T07:42:55.000Z</time>
      </trkpt>
      <trkpt lat="46.2175" lon="-1.06738">
        <ele>4</ele>
        <time>2015-05-04T07:43:05.000Z</time>
      </trkpt>
      <trkpt lat="46.21744" lon="-1.06723">
        <ele>4</ele>
        <time>2015-05-04T07:43:13.000Z</time>
      </trkpt>
      <trkpt lat="46.21737" lon="-1.06705">
        <ele>4</ele>
        <time>2015-05-04T07:43:24.000Z</time>
      </trkpt>
      <trkpt lat="46.21728" lon="-1.06695">
        <ele>4</ele>
        <time>2015-05-04T07:43:32.000Z</time>
      </trkpt>
      <trkpt lat="46.21719" lon="-1.06695">
        <ele>4.1</ele>
        <time>2015-05-04T07:43:39.000Z</time>
      </trkpt>
      <trkpt lat="46.21707" lon="-1.067">
        <ele>4.4</ele>
        <time>2015-05-04T07:43:48.000Z</time>
      </trkpt>
      <trkpt lat="46.21699" lon="-1.06705">
        <ele>4.5</ele>
        <time>2015-05-04T07:43:54.000Z</time>
      </trkpt>
      <trkpt lat="46.21685" lon="-1.06711">
        <ele>4.6</ele>
        <time>2015-05-04T07:44:04.000Z</time>
      </trkpt>
      <trkpt lat="46.21673" lon="-1.06717">
        <ele>4.8</ele>
        <time>2015-05-04T07:44:13.000Z</time>
      </trkpt>
      <trkpt lat="46.21656" lon="-1.06729">
        <ele>4.5</ele>
        <time>2015-05-04T07:44:26.000Z</time>
      </trkpt>
      <trkpt lat="46.21643" lon="-1.0674">
        <ele>4</ele>
        <time>2015-05-04T07:44:37.000Z</time>
      </trkpt>
      <trkpt lat="46.2163" lon="-1.06753">
        <ele>4.3</ele>
        <time>2015-05-04T07:44:48.000Z</time>
      </trkpt>
      <trkpt lat="46.2162" lon="-1.06767">
        <ele>4.7</ele>
        <time>2015-05-04T07:44:58.000Z</time>
      </trkpt>
      <trkpt lat="46.2161" lon="-1.06785">
        <ele>5</ele>
        <time>2015-05-04T07:45:09.000Z</time>
      </trkpt>
      <trkpt lat="46.21601" lon="-1.068">
        <ele>5</ele>
        <time>2015-05-04T07:45:19.000Z</time>
      </trkpt>
      <trkpt lat="46.21588" lon="-1.06821">
        <ele>5</ele>
        <time>2015-05-04T07:45:32.000Z</time>
      </trkpt>
      <trkpt lat="46.21578" lon="-1.06839">
        <ele>4.8</ele>
        <time>2015-05-04T07:45:43.000Z</time>
      </trkpt>
      <trkpt lat="46.21569" lon="-1.06855">
        <ele>4.2</ele>
        <time>2015-05-04T07:45:53.000Z</time>
      </trkpt>
      <trkpt lat="46.21557" lon="-1.06873">
        <ele>4</ele>
        <time>2015-05-04T07:46:05.000Z</time>
      </trkpt>
      <trkpt lat="46.21544" lon="-1.06888">
        <ele>4.4</ele>
        <time>2015-05-04T07:46:17.000Z</time>
      </trkpt>
      <trkpt lat="46.21531" lon="-1.069">
        <ele>4.5</ele>
        <time>2015-05-04T07:46:28.000Z</time>
      </trkpt>
      <trkpt lat="46.21517" lon="-1.06911">
        <ele>4.5</ele>
        <time>2015-05-04T07:46:39.000Z</time>
      </trkpt>
      <trkpt lat="46.215" lon="-1.06925">
        <ele>4.7</ele>
        <time>2015-05-04T07:46:52.000Z</time>
      </trkpt>
      <trkpt lat="46.21483" lon="-1.06936">
        <ele>4.3</ele>
        <time>2015-05-04T07:47:05.000Z</time>
      </trkpt>
      <trkpt lat="46.21469" lon="-1.06941">
        <ele>4.1</ele>
        <time>2015-05-04T07:47:15.000Z</time>
      </trkpt>
      <trkpt lat="46.21454" lon="-1.06943">
        <ele>4</ele>
        <time>2015-05-04T07:47:26.000Z</time>
      </trkpt>
      <trkpt lat="46.21443" lon="-1.06941">
        <ele>4</ele>
        <time>2015-05-04T07:47:34.000Z</time>
      </trkpt>
      <trkpt lat="46.2143" lon="-1.06933">
        <ele>4.2</ele>
        <time>2015-05-04T07:47:44.000Z</time>
      </trkpt>
      <trkpt lat="46.21418" lon="-1.06922">
        <ele>4.8</ele>
        <time>2015-05-04T07:47:54.000Z</time>
      </trkpt>
      <trkpt lat="46.21407" lon="-1.0691">
        <ele>4.9</ele>
        <time>2015-05-04T07:48:03.000Z</time>
      </trkpt>
      <trkpt lat="46.21393" lon="-1.06899">
        <ele>4.5</ele>
        <time>2015-05-04T07:48:14.000Z</time>
      </trkpt>
      <trkpt lat="46.21384" lon="-1.06899">
        <ele>4.3</ele>
        <time>2015-05-04T07:48:21.000Z</time>
      </trkpt>
      <trkpt lat="46.2137" lon="-1.06904">
        <ele>4.2</ele>
        <time>2015-05-04T07:48:30.000Z</time>
      </trkpt>
      <trkpt lat="46.2136" lon="-1.0691">
        <ele>4</ele>
        <time>2015-05-04T07:48:37.000Z</time>
      </trkpt>
      <trkpt lat="46.21348" lon="-1.06916">
        <ele>4.5</ele>
        <time>2015-05-04T07:48:46.000Z</time>
      </trkpt>
      <trkpt lat="46.21334" lon="-1.06922">
        <ele>5</ele>
        <time>2015-05-04T07:48:56.000Z</time>
      </trkpt>
      <trkpt lat="46.21324" lon="-1.06929">
        <ele>4.9</ele>
        <time>2015-05-04T07:49:06.000Z</time>
      </trkpt>
      <trkpt lat="46.21322" lon="-1.06934">
        <ele>4.8</ele>
        <time>2015-05-04T07:51:07.000Z</time>
      </trkpt>
      <trkpt lat="46.21324" lon="-1.06941">
        <ele>4.7</ele>
        <time>2015-05-04T07:53:32.000Z</time>
      </trkpt>
      <trkpt lat="46.21325" lon="-1.06954">
        <ele>4.7</ele>
        <time>2015-05-04T07:53:39.000Z</time>
      </trkpt>
      <trkpt lat="46.21328" lon="-1.06971">
        <ele>4.8</ele>
        <time>2015-05-04T07:53:49.000Z</time>
      </trkpt>
      <trkpt lat="46.2133" lon="-1.06989">
        <ele>4.9</ele>
        <time>2015-05-04T07:53:59.000Z</time>
      </trkpt>
      <trkpt lat="46.21332" lon="-1.0701">
        <ele>4.6</ele>
        <time>2015-05-04T07:54:09.000Z</time>
      </trkpt>
      <trkpt lat="46.21334" lon="-1.0703">
        <ele>4</ele>
        <time>2015-05-04T07:54:18.000Z</time>
      </trkpt>
      <trkpt lat="46.21337" lon="-1.07051">
        <ele>4</ele>
        <time>2015-05-04T07:54:29.000Z</time>
      </trkpt>
      <trkpt lat="46.21339" lon="-1.07063">
        <ele>4</ele>
        <time>2015-05-04T07:54:37.000Z</time>
      </trkpt>
      <trkpt lat="46.21341" lon="-1.07081">
        <ele>4</ele>
        <time>2015-05-04T07:54:45.000Z</time>
      </trkpt>
      <trkpt lat="46.21345" lon="-1.07103">
        <ele>4</ele>
        <time>2015-05-04T07:54:57.000Z</time>
      </trkpt>
      <trkpt lat="46.2135" lon="-1.07122">
        <ele>4</ele>
        <time>2015-05-04T07:55:06.000Z</time>
      </trkpt>
      <trkpt lat="46.21356" lon="-1.07136">
        <ele>4</ele>
        <time>2015-05-04T07:55:14.000Z</time>
      </trkpt>
      <trkpt lat="46.21367" lon="-1.07156">
        <ele>4</ele>
        <time>2015-05-04T07:55:27.000Z</time>
      </trkpt>
      <trkpt lat="46.21376" lon="-1.0717">
        <ele>4.1</ele>
        <time>2015-05-04T07:55:37.000Z</time>
      </trkpt>
      <trkpt lat="46.21386" lon="-1.07187">
        <ele>4.7</ele>
        <time>2015-05-04T07:55:47.000Z</time>
      </trkpt>
      <trkpt lat="46.21395" lon="-1.07202">
        <ele>5</ele>
        <time>2015-05-04T07:55:57.000Z</time>
      </trkpt>
      <trkpt lat="46.21403" lon="-1.07218">
        <ele>5</ele>
        <time>2015-05-04T07:56:07.000Z</time>
      </trkpt>
      <trkpt lat="46.214" lon="-1.07229">
        <ele>5</ele>
        <time>2015-05-04T07:56:14.000Z</time>
      </trkpt>
      <trkpt lat="46.2139" lon="-1.07241">
        <ele>5</ele>
        <time>2015-05-04T07:56:24.000Z</time>
      </trkpt>
      <trkpt lat="46.21381" lon="-1.0725">
        <ele>5</ele>
        <time>2015-05-04T07:56:32.000Z</time>
      </trkpt>
      <trkpt lat="46.21373" lon="-1.07258">
        <ele>5</ele>
        <time>2015-05-04T07:56:39.000Z</time>
      </trkpt>
      <trkpt lat="46.21364" lon="-1.07267">
        <ele>5</ele>
        <time>2015-05-04T07:56:47.000Z</time>
      </trkpt>
      <trkpt lat="46.21355" lon="-1.07276">
        <ele>5</ele>
        <time>2015-05-04T07:56:55.000Z</time>
      </trkpt>
      <trkpt lat="46.21345" lon="-1.07284">
        <ele>5</ele>
        <time>2015-05-04T07:57:02.000Z</time>
      </trkpt>
      <trkpt lat="46.21337" lon="-1.07291">
        <ele>5</ele>
        <time>2015-05-04T07:57:09.000Z</time>
      </trkpt>
      <trkpt lat="46.21327" lon="-1.073">
        <ele>5</ele>
        <time>2015-05-04T07:57:17.000Z</time>
      </trkpt>
      <trkpt lat="46.21316" lon="-1.07311">
        <ele>5</ele>
        <time>2015-05-04T07:57:27.000Z</time>
      </trkpt>
      <trkpt lat="46.21306" lon="-1.07321">
        <ele>5</ele>
        <time>2015-05-04T07:57:34.000Z</time>
      </trkpt>
      <trkpt lat="46.21301" lon="-1.07327">
        <ele>5</ele>
        <time>2015-05-04T07:57:39.000Z</time>
      </trkpt>
      <trkpt lat="46.21292" lon="-1.07336">
        <ele>5</ele>
        <time>2015-05-04T07:57:47.000Z</time>
      </trkpt>
      <trkpt lat="46.2128" lon="-1.07346">
        <ele>5</ele>
        <time>2015-05-04T07:57:55.000Z</time>
      </trkpt>
      <trkpt lat="46.21272" lon="-1.07354">
        <ele>5</ele>
        <time>2015-05-04T07:58:02.000Z</time>
      </trkpt>
      <trkpt lat="46.21261" lon="-1.07366">
        <ele>4.9</ele>
        <time>2015-05-04T07:58:11.000Z</time>
      </trkpt>
      <trkpt lat="46.21251" lon="-1.07376">
        <ele>5</ele>
        <time>2015-05-04T07:58:20.000Z</time>
      </trkpt>
      <trkpt lat="46.21239" lon="-1.07389">
        <ele>5</ele>
        <time>2015-05-04T07:58:30.000Z</time>
      </trkpt>
      <trkpt lat="46.21228" lon="-1.074">
        <ele>4.9</ele>
        <time>2015-05-04T07:58:39.000Z</time>
      </trkpt>
      <trkpt lat="46.21219" lon="-1.07409">
        <ele>5</ele>
        <time>2015-05-04T07:58:46.000Z</time>
      </trkpt>
      <trkpt lat="46.21208" lon="-1.07419">
        <ele>5</ele>
        <time>2015-05-04T07:58:55.000Z</time>
      </trkpt>
      <trkpt lat="46.21198" lon="-1.0743">
        <ele>5</ele>
        <time>2015-05-04T07:59:04.000Z</time>
      </trkpt>
      <trkpt lat="46.2119" lon="-1.07439">
        <ele>5</ele>
        <time>2015-05-04T07:59:11.000Z</time>
      </trkpt>
      <trkpt lat="46.21179" lon="-1.0745">
        <ele>5.1</ele>
        <time>2015-05-04T07:59:20.000Z</time>
      </trkpt>
      <trkpt lat="46.21168" lon="-1.07461">
        <ele>5.6</ele>
        <time>2015-05-04T07:59:29.000Z</time>
      </trkpt>
      <trkpt lat="46.2116" lon="-1.07469">
        <ele>5.7</ele>
        <time>2015-05-04T07:59:36.000Z</time>
      </trkpt>
      <trkpt lat="46.21151" lon="-1.07478">
        <ele>5.6</ele>
        <time>2015-05-04T07:59:43.000Z</time>
      </trkpt>
      <trkpt lat="46.21141" lon="-1.07489">
        <ele>5.6</ele>
        <time>2015-05-04T07:59:52.000Z</time>
      </trkpt>
      <trkpt lat="46.21132" lon="-1.07497">
        <ele>5.9</ele>
        <time>2015-05-04T07:59:59.000Z</time>
      </trkpt>
      <trkpt lat="46.21124" lon="-1.07505">
        <ele>6</ele>
        <time>2015-05-04T08:00:06.000Z</time>
      </trkpt>
      <trkpt lat="46.21116" lon="-1.07513">
        <ele>6</ele>
        <time>2015-05-04T08:00:12.000Z</time>
      </trkpt>
      <trkpt lat="46.21109" lon="-1.07524">
        <ele>6</ele>
        <time>2015-05-04T08:00:19.000Z</time>
      </trkpt>
      <trkpt lat="46.21097" lon="-1.07533">
        <ele>6</ele>
        <time>2015-05-04T08:00:28.000Z</time>
      </trkpt>
      <trkpt lat="46.21085" lon="-1.07545">
        <ele>6</ele>
        <time>2015-05-04T08:00:38.000Z</time>
      </trkpt>
      <trkpt lat="46.21074" lon="-1.07555">
        <ele>6</ele>
        <time>2015-05-04T08:00:46.000Z</time>
      </trkpt>
      <trkpt lat="46.21061" lon="-1.07566">
        <ele>6</ele>
        <time>2015-05-04T08:00:56.000Z</time>
      </trkpt>
      <trkpt lat="46.21048" lon="-1.0758">
        <ele>6</ele>
        <time>2015-05-04T08:01:07.000Z</time>
      </trkpt>
      <trkpt lat="46.21038" lon="-1.07589">
        <ele>6</ele>
        <time>2015-05-04T08:01:15.000Z</time>
      </trkpt>
      <trkpt lat="46.2103" lon="-1.07597">
        <ele>6</ele>
        <time>2015-05-04T08:01:22.000Z</time>
      </trkpt>
      <trkpt lat="46.21017" lon="-1.07608">
        <ele>6</ele>
        <time>2015-05-04T08:01:31.000Z</time>
      </trkpt>
      <trkpt lat="46.21008" lon="-1.07618">
        <ele>6</ele>
        <time>2015-05-04T08:01:39.000Z</time>
      </trkpt>
      <trkpt lat="46.21" lon="-1.07629">
        <ele>6</ele>
        <time>2015-05-04T08:01:46.000Z</time>
      </trkpt>
      <trkpt lat="46.20991" lon="-1.0764">
        <ele>6</ele>
        <time>2015-05-04T08:01:54.000Z</time>
      </trkpt>
      <trkpt lat="46.20979" lon="-1.07651">
        <ele>6.3</ele>
        <time>2015-05-04T08:02:03.000Z</time>
      </trkpt>
      <trkpt lat="46.2097" lon="-1.07661">
        <ele>6.8</ele>
        <time>2015-05-04T08:02:12.000Z</time>
      </trkpt>
      <trkpt lat="46.20955" lon="-1.07676">
        <ele>6.9</ele>
        <time>2015-05-04T08:02:23.000Z</time>
      </trkpt>
      <trkpt lat="46.20946" lon="-1.07686">
        <ele>7</ele>
        <time>2015-05-04T08:02:31.000Z</time>
      </trkpt>
      <trkpt lat="46.20936" lon="-1.07696">
        <ele>7</ele>
        <time>2015-05-04T08:02:39.000Z</time>
      </trkpt>
      <trkpt lat="46.20928" lon="-1.07705">
        <ele>7</ele>
        <time>2015-05-04T08:02:46.000Z</time>
      </trkpt>
      <trkpt lat="46.20916" lon="-1.07717">
        <ele>7</ele>
        <time>2015-05-04T08:02:56.000Z</time>
      </trkpt>
      <trkpt lat="46.20906" lon="-1.07728">
        <ele>7</ele>
        <time>2015-05-04T08:03:05.000Z</time>
      </trkpt>
      <trkpt lat="46.20898" lon="-1.07735">
        <ele>7</ele>
        <time>2015-05-04T08:03:11.000Z</time>
      </trkpt>
      <trkpt lat="46.20893" lon="-1.0774">
        <ele>7</ele>
        <time>2015-05-04T08:03:15.000Z</time>
      </trkpt>
      <trkpt lat="46.20886" lon="-1.07747">
        <ele>7.1</ele>
        <time>2015-05-04T08:03:22.000Z</time>
      </trkpt>
      <trkpt lat="46.20877" lon="-1.07755">
        <ele>7.4</ele>
        <time>2015-05-04T08:03:29.000Z</time>
      </trkpt>
      <trkpt lat="46.20869" lon="-1.07765">
        <ele>7.7</ele>
        <time>2015-05-04T08:03:36.000Z</time>
      </trkpt>
      <trkpt lat="46.2086" lon="-1.07774">
        <ele>8</ele>
        <time>2015-05-04T08:03:44.000Z</time>
      </trkpt>
      <trkpt lat="46.20848" lon="-1.07787">
        <ele>8</ele>
        <time>2015-05-04T08:03:54.000Z</time>
      </trkpt>
      <trkpt lat="46.20835" lon="-1.07802">
        <ele>8</ele>
        <time>2015-05-04T08:04:05.000Z</time>
      </trkpt>
      <trkpt lat="46.20826" lon="-1.07809">
        <ele>8</ele>
        <time>2015-05-04T08:04:13.000Z</time>
      </trkpt>
      <trkpt lat="46.20814" lon="-1.0782">
        <ele>8</ele>
        <time>2015-05-04T08:04:22.000Z</time>
      </trkpt>
      <trkpt lat="46.20802" lon="-1.07834">
        <ele>8</ele>
        <time>2015-05-04T08:04:32.000Z</time>
      </trkpt>
      <trkpt lat="46.20788" lon="-1.07851">
        <ele>8.4</ele>
        <time>2015-05-04T08:04:43.000Z</time>
      </trkpt>
      <trkpt lat="46.20777" lon="-1.07862">
        <ele>9</ele>
        <time>2015-05-04T08:04:52.000Z</time>
      </trkpt>
      <trkpt lat="46.20762" lon="-1.07878">
        <ele>9.3</ele>
        <time>2015-05-04T08:05:04.000Z</time>
      </trkpt>
      <trkpt lat="46.20746" lon="-1.07894">
        <ele>10.1</ele>
        <time>2015-05-04T08:05:17.000Z</time>
      </trkpt>
      <trkpt lat="46.20734" lon="-1.07907">
        <ele>10.6</ele>
        <time>2015-05-04T08:05:27.000Z</time>
      </trkpt>
      <trkpt lat="46.20722" lon="-1.0792">
        <ele>11</ele>
        <time>2015-05-04T08:05:37.000Z</time>
      </trkpt>
      <trkpt lat="46.20712" lon="-1.0793">
        <ele>11.7</ele>
        <time>2015-05-04T08:05:47.000Z</time>
      </trkpt>
      <trkpt lat="46.207" lon="-1.0794">
        <ele>12.6</ele>
        <time>2015-05-04T08:05:56.000Z</time>
      </trkpt>
      <trkpt lat="46.20689" lon="-1.07951">
        <ele>13</ele>
        <time>2015-05-04T08:06:05.000Z</time>
      </trkpt>
      <trkpt lat="46.2068" lon="-1.07962">
        <ele>13.3</ele>
        <time>2015-05-04T08:06:12.000Z</time>
      </trkpt>
      <trkpt lat="46.2067" lon="-1.07972">
        <ele>13.9</ele>
        <time>2015-05-04T08:06:20.000Z</time>
      </trkpt>
      <trkpt lat="46.20666" lon="-1.07976">
        <ele>13.9</ele>
        <time>2015-05-04T08:06:24.000Z</time>
      </trkpt>
      <trkpt lat="46.20655" lon="-1.07986">
        <ele>13.7</ele>
        <time>2015-05-04T08:06:32.000Z</time>
      </trkpt>
      <trkpt lat="46.20645" lon="-1.07996">
        <ele>13.8</ele>
        <time>2015-05-04T08:06:40.000Z</time>
      </trkpt>
      <trkpt lat="46.2063" lon="-1.08011">
        <ele>14</ele>
        <time>2015-05-04T08:06:52.000Z</time>
      </trkpt>
      <trkpt lat="46.20615" lon="-1.08027">
        <ele>14</ele>
        <time>2015-05-04T08:07:04.000Z</time>
      </trkpt>
      <trkpt lat="46.206" lon="-1.08041">
        <ele>14</ele>
        <time>2015-05-04T08:07:16.000Z</time>
      </trkpt>
      <trkpt lat="46.20585" lon="-1.08057">
        <ele>14</ele>
        <time>2015-05-04T08:07:28.000Z</time>
      </trkpt>
      <trkpt lat="46.20569" lon="-1.08072">
        <ele>14</ele>
        <time>2015-05-04T08:07:41.000Z</time>
      </trkpt>
      <trkpt lat="46.20559" lon="-1.08082">
        <ele>14</ele>
        <time>2015-05-04T08:07:50.000Z</time>
      </trkpt>
      <trkpt lat="46.20546" lon="-1.08095">
        <ele>14</ele>
        <time>2015-05-04T08:08:00.000Z</time>
      </trkpt>
      <trkpt lat="46.20534" lon="-1.08108">
        <ele>14</ele>
        <time>2015-05-04T08:08:10.000Z</time>
      </trkpt>
      <trkpt lat="46.20521" lon="-1.0812">
        <ele>14.2</ele>
        <time>2015-05-04T08:08:22.000Z</time>
      </trkpt>
      <trkpt lat="46.20507" lon="-1.08133">
        <ele>14.7</ele>
        <time>2015-05-04T08:08:34.000Z</time>
      </trkpt>
      <trkpt lat="46.20502" lon="-1.08139">
        <ele>14.9</ele>
        <time>2015-05-04T08:08:42.000Z</time>
      </trkpt>
      <trkpt lat="46.20499" lon="-1.08143">
        <ele>15</ele>
        <time>2015-05-04T08:08:49.000Z</time>
      </trkpt>
      <trkpt lat="46.20498" lon="-1.08149">
        <ele>15</ele>
        <time>2015-05-04T08:11:14.000Z</time>
      </trkpt>
      <trkpt lat="46.20495" lon="-1.0814">
        <ele>15</ele>
        <time>2015-05-04T08:14:22.000Z</time>
      </trkpt>
      <trkpt lat="46.20494" lon="-1.0813">
        <ele>15</ele>
        <time>2015-05-04T08:14:29.000Z</time>
      </trkpt>
      <trkpt lat="46.20493" lon="-1.08115">
        <ele>15</ele>
        <time>2015-05-04T08:14:37.000Z</time>
      </trkpt>
      <trkpt lat="46.20493" lon="-1.08096">
        <ele>15</ele>
        <time>2015-05-04T08:14:46.000Z</time>
      </trkpt>
      <trkpt lat="46.20493" lon="-1.08074">
        <ele>15</ele>
        <time>2015-05-04T08:14:56.000Z</time>
      </trkpt>
      <trkpt lat="46.20493" lon="-1.08055">
        <ele>15</ele>
        <time>2015-05-04T08:15:06.000Z</time>
      </trkpt>
      <trkpt lat="46.20494" lon="-1.08032">
        <ele>15</ele>
        <time>2015-05-04T08:15:17.000Z</time>
      </trkpt>
      <trkpt lat="46.20494" lon="-1.0801">
        <ele>15</ele>
        <time>2015-05-04T08:15:27.000Z</time>
      </trkpt>
      <trkpt lat="46.20494" lon="-1.07993">
        <ele>15</ele>
        <time>2015-05-04T08:15:35.000Z</time>
      </trkpt>
      <trkpt lat="46.20495" lon="-1.07977">
        <ele>15</ele>
        <time>2015-05-04T08:15:43.000Z</time>
      </trkpt>
      <trkpt lat="46.20496" lon="-1.07961">
        <ele>15</ele>
        <time>2015-05-04T08:15:51.000Z</time>
      </trkpt>
      <trkpt lat="46.20497" lon="-1.07944">
        <ele>15</ele>
        <time>2015-05-04T08:15:59.000Z</time>
      </trkpt>
      <trkpt lat="46.20496" lon="-1.07926">
        <ele>15</ele>
        <time>2015-05-04T08:16:08.000Z</time>
      </trkpt>
      <trkpt lat="46.20496" lon="-1.07902">
        <ele>14.5</ele>
        <time>2015-05-04T08:16:19.000Z</time>
      </trkpt>
      <trkpt lat="46.20498" lon="-1.07879">
        <ele>14</ele>
        <time>2015-05-04T08:16:30.000Z</time>
      </trkpt>
      <trkpt lat="46.205" lon="-1.07856">
        <ele>14</ele>
        <time>2015-05-04T08:16:41.000Z</time>
      </trkpt>
      <trkpt lat="46.20501" lon="-1.07828">
        <ele>14</ele>
        <time>2015-05-04T08:16:55.000Z</time>
      </trkpt>
      <trkpt lat="46.20502" lon="-1.07802">
        <ele>14</ele>
        <time>2015-05-04T08:17:07.000Z</time>
      </trkpt>
      <trkpt lat="46.20503" lon="-1.07778">
        <ele>13.9</ele>
        <time>2015-05-04T08:17:17.000Z</time>
      </trkpt>
      <trkpt lat="46.20503" lon="-1.07756">
        <ele>13.9</ele>
        <time>2015-05-04T08:17:27.000Z</time>
      </trkpt>
      <trkpt lat="46.20504" lon="-1.07737">
        <ele>13.4</ele>
        <time>2015-05-04T08:17:37.000Z</time>
      </trkpt>
      <trkpt lat="46.20503" lon="-1.0772">
        <ele>13</ele>
        <time>2015-05-04T08:17:44.000Z</time>
      </trkpt>
      <trkpt lat="46.20503" lon="-1.07703">
        <ele>12.9</ele>
        <time>2015-05-04T08:17:52.000Z</time>
      </trkpt>
      <trkpt lat="46.20503" lon="-1.07688">
        <ele>12.7</ele>
        <time>2015-05-04T08:17:59.000Z</time>
      </trkpt>
      <trkpt lat="46.20503" lon="-1.07669">
        <ele>12.1</ele>
        <time>2015-05-04T08:18:08.000Z</time>
      </trkpt>
      <trkpt lat="46.20503" lon="-1.07656">
        <ele>12</ele>
        <time>2015-05-04T08:18:14.000Z</time>
      </trkpt>
      <trkpt lat="46.20504" lon="-1.07645">
        <ele>12</ele>
        <time>2015-05-04T08:18:20.000Z</time>
      </trkpt>
      <trkpt lat="46.20506" lon="-1.07623">
        <ele>11.9</ele>
        <time>2015-05-04T08:18:30.000Z</time>
      </trkpt>
      <trkpt lat="46.20507" lon="-1.07606">
        <ele>11.6</ele>
        <time>2015-05-04T08:18:38.000Z</time>
      </trkpt>
      <trkpt lat="46.20509" lon="-1.07587">
        <ele>11.1</ele>
        <time>2015-05-04T08:18:47.000Z</time>
      </trkpt>
      <trkpt lat="46.20511" lon="-1.07566">
        <ele>11</ele>
        <time>2015-05-04T08:18:55.000Z</time>
      </trkpt>
      <trkpt lat="46.20513" lon="-1.07548">
        <ele>11</ele>
        <time>2015-05-04T08:19:03.000Z</time>
      </trkpt>
      <trkpt lat="46.20515" lon="-1.07521">
        <ele>10.9</ele>
        <time>2015-05-04T08:19:15.000Z</time>
      </trkpt>
      <trkpt lat="46.20519" lon="-1.07495">
        <ele>10.4</ele>
        <time>2015-05-04T08:19:27.000Z</time>
      </trkpt>
      <trkpt lat="46.20524" lon="-1.0747">
        <ele>11</ele>
        <time>2015-05-04T08:19:38.000Z</time>
      </trkpt>
      <trkpt lat="46.20531" lon="-1.07447">
        <ele>10.9</ele>
        <time>2015-05-04T08:19:49.000Z</time>
      </trkpt>
      <trkpt lat="46.20539" lon="-1.07422">
        <ele>10.6</ele>
        <time>2015-05-04T08:20:01.000Z</time>
      </trkpt>
      <trkpt lat="46.20548" lon="-1.07397">
        <ele>10.8</ele>
        <time>2015-05-04T08:20:13.000Z</time>
      </trkpt>
      <trkpt lat="46.20554" lon="-1.07379">
        <ele>11</ele>
        <time>2015-05-04T08:20:22.000Z</time>
      </trkpt>
      <trkpt lat="46.2056" lon="-1.07359">
        <ele>11.1</ele>
        <time>2015-05-04T08:20:32.000Z</time>
      </trkpt>
      <trkpt lat="46.20568" lon="-1.07335">
        <ele>11.9</ele>
        <time>2015-05-04T08:20:44.000Z</time>
      </trkpt>
      <trkpt lat="46.20575" lon="-1.07315">
        <ele>12</ele>
        <time>2015-05-04T08:20:54.000Z</time>
      </trkpt>
      <trkpt lat="46.20583" lon="-1.07292">
        <ele>12.5</ele>
        <time>2015-05-04T08:21:06.000Z</time>
      </trkpt>
      <trkpt lat="46.20591" lon="-1.07271">
        <ele>13</ele>
        <time>2015-05-04T08:21:17.000Z</time>
      </trkpt>
      <trkpt lat="46.206" lon="-1.07248">
        <ele>13</ele>
        <time>2015-05-04T08:21:30.000Z</time>
      </trkpt>
      <trkpt lat="46.20609" lon="-1.07227">
        <ele>13</ele>
        <time>2015-05-04T08:21:41.000Z</time>
      </trkpt>
      <trkpt lat="46.20619" lon="-1.07205">
        <ele>13</ele>
        <time>2015-05-04T08:21:52.000Z</time>
      </trkpt>
      <trkpt lat="46.20628" lon="-1.07185">
        <ele>13</ele>
        <time>2015-05-04T08:22:03.000Z</time>
      </trkpt>
      <trkpt lat="46.20637" lon="-1.07166">
        <ele>13</ele>
        <time>2015-05-04T08:22:14.000Z</time>
      </trkpt>
      <trkpt lat="46.20648" lon="-1.07143">
        <ele>13</ele>
        <time>2015-05-04T08:22:26.000Z</time>
      </trkpt>
      <trkpt lat="46.20656" lon="-1.07127">
        <ele>13</ele>
        <time>2015-05-04T08:22:36.000Z</time>
      </trkpt>
      <trkpt lat="46.20663" lon="-1.07111">
        <ele>13</ele>
        <time>2015-05-04T08:22:44.000Z</time>
      </trkpt>
      <trkpt lat="46.20673" lon="-1.07089">
        <ele>12.8</ele>
        <time>2015-05-04T08:22:57.000Z</time>
      </trkpt>
      <trkpt lat="46.20683" lon="-1.07067">
        <ele>12.4</ele>
        <time>2015-05-04T08:23:08.000Z</time>
      </trkpt>
      <trkpt lat="46.20693" lon="-1.07044">
        <ele>12.1</ele>
        <time>2015-05-04T08:23:20.000Z</time>
      </trkpt>
      <trkpt lat="46.20702" lon="-1.07024">
        <ele>11.4</ele>
        <time>2015-05-04T08:23:32.000Z</time>
      </trkpt>
      <trkpt lat="46.20712" lon="-1.07003">
        <ele>10.8</ele>
        <time>2015-05-04T08:23:42.000Z</time>
      </trkpt>
      <trkpt lat="46.20721" lon="-1.06983">
        <ele>10.7</ele>
        <time>2015-05-04T08:23:54.000Z</time>
      </trkpt>
      <trkpt lat="46.2073" lon="-1.0696">
        <ele>10.2</ele>
        <time>2015-05-04T08:24:06.000Z</time>
      </trkpt>
      <trkpt lat="46.20739" lon="-1.06937">
        <ele>10</ele>
        <time>2015-05-04T08:24:17.000Z</time>
      </trkpt>
      <trkpt lat="46.20745" lon="-1.0692">
        <ele>10</ele>
        <time>2015-05-04T08:24:26.000Z</time>
      </trkpt>
      <trkpt lat="46.20752" lon="-1.06902">
        <ele>9.9</ele>
        <time>2015-05-04T08:24:36.000Z</time>
      </trkpt>
      <trkpt lat="46.20759" lon="-1.06879">
        <ele>9.9</ele>
        <time>2015-05-04T08:24:47.000Z</time>
      </trkpt>
      <trkpt lat="46.20765" lon="-1.06857">
        <ele>10</ele>
        <time>2015-05-04T08:24:57.000Z</time>
      </trkpt>
      <trkpt lat="46.20769" lon="-1.06841">
        <ele>10.1</ele>
        <time>2015-05-04T08:25:06.000Z</time>
      </trkpt>
      <trkpt lat="46.20772" lon="-1.06825">
        <ele>10.2</ele>
        <time>2015-05-04T08:25:13.000Z</time>
      </trkpt>
      <trkpt lat="46.20779" lon="-1.068">
        <ele>10.2</ele>
        <time>2015-05-04T08:25:26.000Z</time>
      </trkpt>
      <trkpt lat="46.20782" lon="-1.06785">
        <ele>10.6</ele>
        <time>2015-05-04T08:25:32.000Z</time>
      </trkpt>
      <trkpt lat="46.20788" lon="-1.06763">
        <ele>11</ele>
        <time>2015-05-04T08:25:44.000Z</time>
      </trkpt>
      <trkpt lat="46.20789" lon="-1.06758">
        <ele>11</ele>
        <time>2015-05-04T08:25:47.000Z</time>
      </trkpt>
      <trkpt lat="46.20795" lon="-1.06755">
        <ele>10.7</ele>
        <time>2015-05-04T08:25:54.000Z</time>
      </trkpt>
      <trkpt lat="46.20796" lon="-1.06756">
        <ele>10.6</ele>
        <time>2015-05-04T08:26:02.000Z</time>
      </trkpt>
      <trkpt lat="46.20794" lon="-1.06756">
        <ele>10.7</ele>
        <time>2015-05-04T08:29:02.000Z</time>
      </trkpt>
      <trkpt lat="46.20797" lon="-1.06763">
        <ele>10.5</ele>
        <time>2015-05-04T08:29:07.000Z</time>
      </trkpt>
      <trkpt lat="46.20808" lon="-1.06786">
        <ele>9.6</ele>
        <time>2015-05-04T08:29:20.000Z</time>
      </trkpt>
      <trkpt lat="46.20816" lon="-1.06803">
        <ele>8.7</ele>
        <time>2015-05-04T08:29:30.000Z</time>
      </trkpt>
      <trkpt lat="46.20827" lon="-1.0682">
        <ele>8.2</ele>
        <time>2015-05-04T08:29:40.000Z</time>
      </trkpt>
      <trkpt lat="46.20835" lon="-1.06839">
        <ele>8</ele>
        <time>2015-05-04T08:29:50.000Z</time>
      </trkpt>
      <trkpt lat="46.20844" lon="-1.06853">
        <ele>8</ele>
        <time>2015-05-04T08:29:58.000Z</time>
      </trkpt>
      <trkpt lat="46.20855" lon="-1.06874">
        <ele>7.5</ele>
        <time>2015-05-04T08:30:09.000Z</time>
      </trkpt>
      <trkpt lat="46.20867" lon="-1.06896">
        <ele>6.9</ele>
        <time>2015-05-04T08:30:21.000Z</time>
      </trkpt>
      <trkpt lat="46.20878" lon="-1.06916">
        <ele>6.4</ele>
        <time>2015-05-04T08:30:32.000Z</time>
      </trkpt>
      <trkpt lat="46.20888" lon="-1.06935">
        <ele>6</ele>
        <time>2015-05-04T08:30:42.000Z</time>
      </trkpt>
      <trkpt lat="46.20897" lon="-1.06956">
        <ele>6</ele>
        <time>2015-05-04T08:30:53.000Z</time>
      </trkpt>
      <trkpt lat="46.20905" lon="-1.06974">
        <ele>6</ele>
        <time>2015-05-04T08:31:03.000Z</time>
      </trkpt>
      <trkpt lat="46.20915" lon="-1.06991">
        <ele>6</ele>
        <time>2015-05-04T08:31:13.000Z</time>
      </trkpt>
      <trkpt lat="46.20926" lon="-1.07014">
        <ele>6</ele>
        <time>2015-05-04T08:31:25.000Z</time>
      </trkpt>
      <trkpt lat="46.20933" lon="-1.07032">
        <ele>6</ele>
        <time>2015-05-04T08:31:34.000Z</time>
      </trkpt>
      <trkpt lat="46.2094" lon="-1.07052">
        <ele>6</ele>
        <time>2015-05-04T08:31:45.000Z</time>
      </trkpt>
      <trkpt lat="46.20946" lon="-1.07064">
        <ele>6</ele>
        <time>2015-05-04T08:31:52.000Z</time>
      </trkpt>
      <trkpt lat="46.20951" lon="-1.07072">
        <ele>6</ele>
        <time>2015-05-04T08:31:57.000Z</time>
      </trkpt>
      <trkpt lat="46.20959" lon="-1.07088">
        <ele>6</ele>
        <time>2015-05-04T08:32:07.000Z</time>
      </trkpt>
      <trkpt lat="46.20965" lon="-1.071">
        <ele>6</ele>
        <time>2015-05-04T08:32:14.000Z</time>
      </trkpt>
      <trkpt lat="46.20965" lon="-1.07102">
        <ele>6</ele>
        <time>2015-05-04T08:32:15.000Z</time>
      </trkpt>
      <trkpt lat="46.20971" lon="-1.07118">
        <ele>6</ele>
        <time>2015-05-04T08:32:23.000Z</time>
      </trkpt>
      <trkpt lat="46.20976" lon="-1.07127">
        <ele>6</ele>
        <time>2015-05-04T08:32:28.000Z</time>
      </trkpt>
      <trkpt lat="46.20984" lon="-1.0714">
        <ele>6</ele>
        <time>2015-05-04T08:32:37.000Z</time>
      </trkpt>
      <trkpt lat="46.20985" lon="-1.0714">
        <ele>6</ele>
        <time>2015-05-04T08:32:38.000Z</time>
      </trkpt>
      <trkpt lat="46.20986" lon="-1.07146">
        <ele>6</ele>
        <time>2015-05-04T08:32:42.000Z</time>
      </trkpt>
      <trkpt lat="46.20988" lon="-1.07148">
        <ele>6</ele>
        <time>2015-05-04T08:32:44.000Z</time>
      </trkpt>
      <trkpt lat="46.20995" lon="-1.07153">
        <ele>6</ele>
        <time>2015-05-04T08:32:50.000Z</time>
      </trkpt>
      <trkpt lat="46.21004" lon="-1.0717">
        <ele>6</ele>
        <time>2015-05-04T08:33:01.000Z</time>
      </trkpt>
      <trkpt lat="46.21011" lon="-1.07182">
        <ele>6</ele>
        <time>2015-05-04T08:33:10.000Z</time>
      </trkpt>
      <trkpt lat="46.21021" lon="-1.07202">
        <ele>6</ele>
        <time>2015-05-04T08:33:22.000Z</time>
      </trkpt>
      <trkpt lat="46.2103" lon="-1.0722">
        <ele>6</ele>
        <time>2015-05-04T08:33:33.000Z</time>
      </trkpt>
      <trkpt lat="46.21041" lon="-1.07241">
        <ele>6.3</ele>
        <time>2015-05-04T08:33:46.000Z</time>
      </trkpt>
      <trkpt lat="46.21049" lon="-1.07256">
        <ele>6.6</ele>
        <time>2015-05-04T08:33:55.000Z</time>
      </trkpt>
      <trkpt lat="46.21058" lon="-1.07275">
        <ele>6.1</ele>
        <time>2015-05-04T08:34:06.000Z</time>
      </trkpt>
      <trkpt lat="46.21065" lon="-1.07285">
        <ele>6</ele>
        <time>2015-05-04T08:34:13.000Z</time>
      </trkpt>
      <trkpt lat="46.21073" lon="-1.073">
        <ele>6</ele>
        <time>2015-05-04T08:34:22.000Z</time>
      </trkpt>
      <trkpt lat="46.21081" lon="-1.07319">
        <ele>6</ele>
        <time>2015-05-04T08:34:33.000Z</time>
      </trkpt>
      <trkpt lat="46.21089" lon="-1.07338">
        <ele>6</ele>
        <time>2015-05-04T08:34:45.000Z</time>
      </trkpt>
      <trkpt lat="46.21093" lon="-1.0735">
        <ele>6</ele>
        <time>2015-05-04T08:34:52.000Z</time>
      </trkpt>
      <trkpt lat="46.21103" lon="-1.07367">
        <ele>6</ele>
        <time>2015-05-04T08:35:04.000Z</time>
      </trkpt>
      <trkpt lat="46.21111" lon="-1.07383">
        <ele>6</ele>
        <time>2015-05-04T08:35:15.000Z</time>
      </trkpt>
      <trkpt lat="46.21119" lon="-1.07399">
        <ele>6</ele>
        <time>2015-05-04T08:35:25.000Z</time>
      </trkpt>
      <trkpt lat="46.21128" lon="-1.07417">
        <ele>6</ele>
        <time>2015-05-04T08:35:36.000Z</time>
      </trkpt>
      <trkpt lat="46.21136" lon="-1.07433">
        <ele>6</ele>
        <time>2015-05-04T08:35:46.000Z</time>
      </trkpt>
      <trkpt lat="46.21143" lon="-1.07448">
        <ele>5.8</ele>
        <time>2015-05-04T08:35:55.000Z</time>
      </trkpt>
      <trkpt lat="46.21151" lon="-1.07463">
        <ele>5.5</ele>
        <time>2015-05-04T08:36:05.000Z</time>
      </trkpt>
      <trkpt lat="46.21157" lon="-1.07473">
        <ele>5.6</ele>
        <time>2015-05-04T08:36:12.000Z</time>
      </trkpt>
      <trkpt lat="46.21157" lon="-1.07473">
        <ele>5.7</ele>
        <time>2015-05-04T08:36:13.000Z</time>
      </trkpt>
      <trkpt lat="46.21159" lon="-1.07474">
        <ele>5.7</ele>
        <time>2015-05-04T08:36:15.000Z</time>
      </trkpt>
      <trkpt lat="46.21156" lon="-1.07478">
        <ele>5.7</ele>
        <time>2015-05-04T08:36:21.000Z</time>
      </trkpt>
      <trkpt lat="46.21149" lon="-1.07485">
        <ele>5.6</ele>
        <time>2015-05-04T08:36:29.000Z</time>
      </trkpt>
      <trkpt lat="46.21141" lon="-1.07492">
        <ele>5.7</ele>
        <time>2015-05-04T08:36:38.000Z</time>
      </trkpt>
      <trkpt lat="46.21132" lon="-1.07499">
        <ele>6</ele>
        <time>2015-05-04T08:36:46.000Z</time>
      </trkpt>
      <trkpt lat="46.21131" lon="-1.075">
        <ele>6</ele>
        <time>2015-05-04T08:36:47.000Z</time>
      </trkpt>
      <trkpt lat="46.21121" lon="-1.0751">
        <ele>6</ele>
        <time>2015-05-04T08:36:57.000Z</time>
      </trkpt>
      <trkpt lat="46.21114" lon="-1.07517">
        <ele>6</ele>
        <time>2015-05-04T08:37:05.000Z</time>
      </trkpt>
      <trkpt lat="46.21108" lon="-1.07528">
        <ele>6</ele>
        <time>2015-05-04T08:37:14.000Z</time>
      </trkpt>
      <trkpt lat="46.21107" lon="-1.07529">
        <ele>6</ele>
        <time>2015-05-04T08:37:15.000Z</time>
      </trkpt>
      <trkpt lat="46.21114" lon="-1.07532">
        <ele>6</ele>
        <time>2015-05-04T08:37:24.000Z</time>
      </trkpt>
      <trkpt lat="46.21112" lon="-1.07532">
        <ele>6</ele>
        <time>2015-05-04T08:37:47.000Z</time>
      </trkpt>
      <trkpt lat="46.21109" lon="-1.0753">
        <ele>6</ele>
        <time>2015-05-04T08:37:54.000Z</time>
      </trkpt>
      <trkpt lat="46.21104" lon="-1.07529">
        <ele>6</ele>
        <time>2015-05-04T08:38:02.000Z</time>
      </trkpt>
      <trkpt lat="46.21101" lon="-1.07532">
        <ele>6</ele>
        <time>2015-05-04T08:38:38.000Z</time>
      </trkpt>
      <trkpt lat="46.21097" lon="-1.07535">
        <ele>6</ele>
        <time>2015-05-04T08:38:53.000Z</time>
      </trkpt>
      <trkpt lat="46.21095" lon="-1.07538">
        <ele>6</ele>
        <time>2015-05-04T08:39:00.000Z</time>
      </trkpt>
      <trkpt lat="46.21091" lon="-1.07541">
        <ele>6</ele>
        <time>2015-05-04T08:39:07.000Z</time>
      </trkpt>
      <trkpt lat="46.21089" lon="-1.07543">
        <ele>6</ele>
        <time>2015-05-04T08:39:16.000Z</time>
      </trkpt>
      <trkpt lat="46.21088" lon="-1.07544">
        <ele>6</ele>
        <time>2015-05-04T08:39:29.000Z</time>
      </trkpt>
      <trkpt lat="46.21087" lon="-1.07545">
        <ele>6</ele>
        <time>2015-05-04T08:39:46.000Z</time>
      </trkpt>
      <trkpt lat="46.21085" lon="-1.07546">
        <ele>6</ele>
        <time>2015-05-04T08:39:54.000Z</time>
      </trkpt>
      <trkpt lat="46.21076" lon="-1.07554">
        <ele>6</ele>
        <time>2015-05-04T08:40:02.000Z</time>
      </trkpt>
      <trkpt lat="46.21066" lon="-1.07565">
        <ele>6</ele>
        <time>2015-05-04T08:40:12.000Z</time>
      </trkpt>
      <trkpt lat="46.21054" lon="-1.07576">
        <ele>6</ele>
        <time>2015-05-04T08:40:23.000Z</time>
      </trkpt>
      <trkpt lat="46.21038" lon="-1.0759">
        <ele>6</ele>
        <time>2015-05-04T08:40:37.000Z</time>
      </trkpt>
      <trkpt lat="46.21026" lon="-1.07601">
        <ele>6</ele>
        <time>2015-05-04T08:40:47.000Z</time>
      </trkpt>
      <trkpt lat="46.21014" lon="-1.07612">
        <ele>6</ele>
        <time>2015-05-04T08:40:57.000Z</time>
      </trkpt>
      <trkpt lat="46.21006" lon="-1.0762">
        <ele>6</ele>
        <time>2015-05-04T08:41:05.000Z</time>
      </trkpt>
      <trkpt lat="46.20999" lon="-1.07629">
        <ele>6</ele>
        <time>2015-05-04T08:41:12.000Z</time>
      </trkpt>
      <trkpt lat="46.20988" lon="-1.0764">
        <ele>6</ele>
        <time>2015-05-04T08:41:21.000Z</time>
      </trkpt>
      <trkpt lat="46.20977" lon="-1.07651">
        <ele>6.4</ele>
        <time>2015-05-04T08:41:31.000Z</time>
      </trkpt>
      <trkpt lat="46.20963" lon="-1.07664">
        <ele>6.9</ele>
        <time>2015-05-04T08:41:42.000Z</time>
      </trkpt>
      <trkpt lat="46.20954" lon="-1.07672">
        <ele>6.9</ele>
        <time>2015-05-04T08:41:49.000Z</time>
      </trkpt>
      <trkpt lat="46.20944" lon="-1.07683">
        <ele>7</ele>
        <time>2015-05-04T08:41:59.000Z</time>
      </trkpt>
      <trkpt lat="46.20934" lon="-1.07693">
        <ele>7</ele>
        <time>2015-05-04T08:42:07.000Z</time>
      </trkpt>
      <trkpt lat="46.20925" lon="-1.07702">
        <ele>7</ele>
        <time>2015-05-04T08:42:15.000Z</time>
      </trkpt>
      <trkpt lat="46.20912" lon="-1.07714">
        <ele>7</ele>
        <time>2015-05-04T08:42:25.000Z</time>
      </trkpt>
      <trkpt lat="46.20904" lon="-1.07722">
        <ele>7</ele>
        <time>2015-05-04T08:42:32.000Z</time>
      </trkpt>
      <trkpt lat="46.20897" lon="-1.0773">
        <ele>7</ele>
        <time>2015-05-04T08:42:39.000Z</time>
      </trkpt>
      <trkpt lat="46.20887" lon="-1.07741">
        <ele>7.1</ele>
        <time>2015-05-04T08:42:47.000Z</time>
      </trkpt>
      <trkpt lat="46.20877" lon="-1.07751">
        <ele>7.4</ele>
        <time>2015-05-04T08:42:55.000Z</time>
      </trkpt>
      <trkpt lat="46.20869" lon="-1.0776">
        <ele>7.7</ele>
        <time>2015-05-04T08:43:02.000Z</time>
      </trkpt>
      <trkpt lat="46.20859" lon="-1.07769">
        <ele>8</ele>
        <time>2015-05-04T08:43:10.000Z</time>
      </trkpt>
      <trkpt lat="46.20847" lon="-1.07782">
        <ele>8</ele>
        <time>2015-05-04T08:43:20.000Z</time>
      </trkpt>
      <trkpt lat="46.20831" lon="-1.07798">
        <ele>8</ele>
        <time>2015-05-04T08:43:32.000Z</time>
      </trkpt>
      <trkpt lat="46.20822" lon="-1.07809">
        <ele>8</ele>
        <time>2015-05-04T08:43:39.000Z</time>
      </trkpt>
      <trkpt lat="46.20811" lon="-1.07821">
        <ele>8</ele>
        <time>2015-05-04T08:43:48.000Z</time>
      </trkpt>
      <trkpt lat="46.20799" lon="-1.07835">
        <ele>8</ele>
        <time>2015-05-04T08:43:58.000Z</time>
      </trkpt>
      <trkpt lat="46.20784" lon="-1.07852">
        <ele>8.5</ele>
        <time>2015-05-04T08:44:10.000Z</time>
      </trkpt>
      <trkpt lat="46.20769" lon="-1.07868">
        <ele>9.1</ele>
        <time>2015-05-04T08:44:22.000Z</time>
      </trkpt>
      <trkpt lat="46.20757" lon="-1.0788">
        <ele>9.5</ele>
        <time>2015-05-04T08:44:32.000Z</time>
      </trkpt>
      <trkpt lat="46.20746" lon="-1.07892">
        <ele>10.1</ele>
        <time>2015-05-04T08:44:41.000Z</time>
      </trkpt>
      <trkpt lat="46.20736" lon="-1.07903">
        <ele>10.5</ele>
        <time>2015-05-04T08:44:50.000Z</time>
      </trkpt>
      <trkpt lat="46.20728" lon="-1.07911">
        <ele>10.8</ele>
        <time>2015-05-04T08:44:57.000Z</time>
      </trkpt>
      <trkpt lat="46.20716" lon="-1.07922">
        <ele>11.5</ele>
        <time>2015-05-04T08:45:07.000Z</time>
      </trkpt>
      <trkpt lat="46.20705" lon="-1.07933">
        <ele>12.3</ele>
        <time>2015-05-04T08:45:16.000Z</time>
      </trkpt>
      <trkpt lat="46.20691" lon="-1.07948">
        <ele>13</ele>
        <time>2015-05-04T08:45:27.000Z</time>
      </trkpt>
      <trkpt lat="46.20679" lon="-1.07962">
        <ele>13.4</ele>
        <time>2015-05-04T08:45:37.000Z</time>
      </trkpt>
      <trkpt lat="46.20668" lon="-1.07973">
        <ele>13.9</ele>
        <time>2015-05-04T08:45:46.000Z</time>
      </trkpt>
      <trkpt lat="46.20653" lon="-1.07987">
        <ele>13.7</ele>
        <time>2015-05-04T08:45:58.000Z</time>
      </trkpt>
      <trkpt lat="46.20641" lon="-1.07998">
        <ele>13.9</ele>
        <time>2015-05-04T08:46:07.000Z</time>
      </trkpt>
      <trkpt lat="46.2063" lon="-1.08009">
        <ele>14</ele>
        <time>2015-05-04T08:46:16.000Z</time>
      </trkpt>
      <trkpt lat="46.20618" lon="-1.0802">
        <ele>14</ele>
        <time>2015-05-04T08:46:26.000Z</time>
      </trkpt>
      <trkpt lat="46.20604" lon="-1.08034">
        <ele>14</ele>
        <time>2015-05-04T08:46:38.000Z</time>
      </trkpt>
      <trkpt lat="46.20589" lon="-1.08048">
        <ele>14</ele>
        <time>2015-05-04T08:46:50.000Z</time>
      </trkpt>
      <trkpt lat="46.20575" lon="-1.08063">
        <ele>14</ele>
        <time>2015-05-04T08:47:02.000Z</time>
      </trkpt>
      <trkpt lat="46.2056" lon="-1.08077">
        <ele>14</ele>
        <time>2015-05-04T08:47:14.000Z</time>
      </trkpt>
      <trkpt lat="46.20547" lon="-1.0809">
        <ele>14</ele>
        <time>2015-05-04T08:47:25.000Z</time>
      </trkpt>
      <trkpt lat="46.20534" lon="-1.08103">
        <ele>14</ele>
        <time>2015-05-04T08:47:35.000Z</time>
      </trkpt>
      <trkpt lat="46.20523" lon="-1.08114">
        <ele>14.2</ele>
        <time>2015-05-04T08:47:44.000Z</time>
      </trkpt>
      <trkpt lat="46.20511" lon="-1.08126">
        <ele>14.6</ele>
        <time>2015-05-04T08:47:54.000Z</time>
      </trkpt>
      <trkpt lat="46.20498" lon="-1.08138">
        <ele>15</ele>
        <time>2015-05-04T08:48:05.000Z</time>
      </trkpt>
      <trkpt lat="46.20496" lon="-1.08142">
        <ele>15</ele>
        <time>2015-05-04T08:48:09.000Z</time>
      </trkpt>
      <trkpt lat="46.20495" lon="-1.08146">
        <ele>15</ele>
        <time>2015-05-04T08:48:19.000Z</time>
      </trkpt>
      <trkpt lat="46.20495" lon="-1.08155">
        <ele>15</ele>
        <time>2015-05-04T08:50:15.000Z</time>
      </trkpt>
      <trkpt lat="46.20495" lon="-1.08157">
        <ele>15</ele>
        <time>2015-05-04T08:50:17.000Z</time>
      </trkpt>
      <trkpt lat="46.20497" lon="-1.0818">
        <ele>14.6</ele>
        <time>2015-05-04T08:50:29.000Z</time>
      </trkpt>
      <trkpt lat="46.205" lon="-1.08201">
        <ele>14</ele>
        <time>2015-05-04T08:50:39.000Z</time>
      </trkpt>
      <trkpt lat="46.20502" lon="-1.0822">
        <ele>14</ele>
        <time>2015-05-04T08:50:48.000Z</time>
      </trkpt>
      <trkpt lat="46.20505" lon="-1.08243">
        <ele>13.9</ele>
        <time>2015-05-04T08:50:59.000Z</time>
      </trkpt>
      <trkpt lat="46.20507" lon="-1.08262">
        <ele>13.7</ele>
        <time>2015-05-04T08:51:08.000Z</time>
      </trkpt>
      <trkpt lat="46.20508" lon="-1.08287">
        <ele>13.4</ele>
        <time>2015-05-04T08:51:20.000Z</time>
      </trkpt>
      <trkpt lat="46.20506" lon="-1.08311">
        <ele>12.8</ele>
        <time>2015-05-04T08:51:31.000Z</time>
      </trkpt>
      <trkpt lat="46.20503" lon="-1.08332">
        <ele>12.9</ele>
        <time>2015-05-04T08:51:41.000Z</time>
      </trkpt>
      <trkpt lat="46.20498" lon="-1.08357">
        <ele>12.2</ele>
        <time>2015-05-04T08:51:53.000Z</time>
      </trkpt>
      <trkpt lat="46.20491" lon="-1.0838">
        <ele>11.6</ele>
        <time>2015-05-04T08:52:04.000Z</time>
      </trkpt>
      <trkpt lat="46.20484" lon="-1.08404">
        <ele>11</ele>
        <time>2015-05-04T08:52:16.000Z</time>
      </trkpt>
      <trkpt lat="46.20477" lon="-1.0843">
        <ele>10.4</ele>
        <time>2015-05-04T08:52:29.000Z</time>
      </trkpt>
      <trkpt lat="46.20471" lon="-1.08452">
        <ele>10</ele>
        <time>2015-05-04T08:52:40.000Z</time>
      </trkpt>
      <trkpt lat="46.20467" lon="-1.08473">
        <ele>9.8</ele>
        <time>2015-05-04T08:52:50.000Z</time>
      </trkpt>
      <trkpt lat="46.20465" lon="-1.0849">
        <ele>9.7</ele>
        <time>2015-05-04T08:52:58.000Z</time>
      </trkpt>
      <trkpt lat="46.20464" lon="-1.08505">
        <ele>9.6</ele>
        <time>2015-05-04T08:53:05.000Z</time>
      </trkpt>
      <trkpt lat="46.20463" lon="-1.08517">
        <ele>9.5</ele>
        <time>2015-05-04T08:53:11.000Z</time>
      </trkpt>
      <trkpt lat="46.20463" lon="-1.08535">
        <ele>9.3</ele>
        <time>2015-05-04T08:53:19.000Z</time>
      </trkpt>
      <trkpt lat="46.20461" lon="-1.08564">
        <ele>9.4</ele>
        <time>2015-05-04T08:53:32.000Z</time>
      </trkpt>
      <trkpt lat="46.20461" lon="-1.08582">
        <ele>9.4</ele>
        <time>2015-05-04T08:53:40.000Z</time>
      </trkpt>
      <trkpt lat="46.20459" lon="-1.08603">
        <ele>9.8</ele>
        <time>2015-05-04T08:53:49.000Z</time>
      </trkpt>
      <trkpt lat="46.20456" lon="-1.0863">
        <ele>10.4</ele>
        <time>2015-05-04T08:54:01.000Z</time>
      </trkpt>
      <trkpt lat="46.20454" lon="-1.08653">
        <ele>10.7</ele>
        <time>2015-05-04T08:54:11.000Z</time>
      </trkpt>
      <trkpt lat="46.20452" lon="-1.08682">
        <ele>10.7</ele>
        <time>2015-05-04T08:54:24.000Z</time>
      </trkpt>
      <trkpt lat="46.20454" lon="-1.08705">
        <ele>10.9</ele>
        <time>2015-05-04T08:54:34.000Z</time>
      </trkpt>
      <trkpt lat="46.20457" lon="-1.08726">
        <ele>11.1</ele>
        <time>2015-05-04T08:54:44.000Z</time>
      </trkpt>
      <trkpt lat="46.20459" lon="-1.08746">
        <ele>11</ele>
        <time>2015-05-04T08:54:53.000Z</time>
      </trkpt>
      <trkpt lat="46.20464" lon="-1.08762">
        <ele>10.9</ele>
        <time>2015-05-04T08:55:01.000Z</time>
      </trkpt>
      <trkpt lat="46.20472" lon="-1.08783">
        <ele>11.2</ele>
        <time>2015-05-04T08:55:12.000Z</time>
      </trkpt>
      <trkpt lat="46.20472" lon="-1.08787">
        <ele>11.3</ele>
        <time>2015-05-04T08:55:14.000Z</time>
      </trkpt>
      <trkpt lat="46.20466" lon="-1.08809">
        <ele>12</ele>
        <time>2015-05-04T08:55:24.000Z</time>
      </trkpt>
      <trkpt lat="46.20459" lon="-1.08829">
        <ele>12</ele>
        <time>2015-05-04T08:55:35.000Z</time>
      </trkpt>
      <trkpt lat="46.20458" lon="-1.08852">
        <ele>12</ele>
        <time>2015-05-04T08:55:46.000Z</time>
      </trkpt>
      <trkpt lat="46.20459" lon="-1.08877">
        <ele>12.3</ele>
        <time>2015-05-04T08:55:58.000Z</time>
      </trkpt>
      <trkpt lat="46.20459" lon="-1.08899">
        <ele>13.1</ele>
        <time>2015-05-04T08:56:08.000Z</time>
      </trkpt>
      <trkpt lat="46.2046" lon="-1.08927">
        <ele>14.3</ele>
        <time>2015-05-04T08:56:21.000Z</time>
      </trkpt>
      <trkpt lat="46.2046" lon="-1.08953">
        <ele>14.1</ele>
        <time>2015-05-04T08:56:33.000Z</time>
      </trkpt>
      <trkpt lat="46.20461" lon="-1.08975">
        <ele>12.8</ele>
        <time>2015-05-04T08:56:43.000Z</time>
      </trkpt>
      <trkpt lat="46.20462" lon="-1.09001">
        <ele>13</ele>
        <time>2015-05-04T08:56:55.000Z</time>
      </trkpt>
      <trkpt lat="46.20462" lon="-1.09026">
        <ele>15.5</ele>
        <time>2015-05-04T08:57:07.000Z</time>
      </trkpt>
      <trkpt lat="46.20463" lon="-1.09052">
        <ele>15.7</ele>
        <time>2015-05-04T08:57:19.000Z</time>
      </trkpt>
      <trkpt lat="46.20464" lon="-1.09079">
        <ele>15.1</ele>
        <time>2015-05-04T08:57:31.000Z</time>
      </trkpt>
      <trkpt lat="46.20469" lon="-1.09099">
        <ele>15.6</ele>
        <time>2015-05-04T08:57:41.000Z</time>
      </trkpt>
      <trkpt lat="46.20478" lon="-1.09111">
        <ele>16</ele>
        <time>2015-05-04T08:57:49.000Z</time>
      </trkpt>
      <trkpt lat="46.2049" lon="-1.09128">
        <ele>16.2</ele>
        <time>2015-05-04T08:58:00.000Z</time>
      </trkpt>
      <trkpt lat="46.20505" lon="-1.09137">
        <ele>16</ele>
        <time>2015-05-04T08:58:11.000Z</time>
      </trkpt>
      <trkpt lat="46.20518" lon="-1.09147">
        <ele>16</ele>
        <time>2015-05-04T08:58:21.000Z</time>
      </trkpt>
      <trkpt lat="46.20528" lon="-1.09163">
        <ele>16</ele>
        <time>2015-05-04T08:58:30.000Z</time>
      </trkpt>
      <trkpt lat="46.20534" lon="-1.09181">
        <ele>16</ele>
        <time>2015-05-04T08:58:39.000Z</time>
      </trkpt>
      <trkpt lat="46.20539" lon="-1.09202">
        <ele>16</ele>
        <time>2015-05-04T08:58:49.000Z</time>
      </trkpt>
      <trkpt lat="46.20545" lon="-1.09228">
        <ele>16</ele>
        <time>2015-05-04T08:59:01.000Z</time>
      </trkpt>
      <trkpt lat="46.20549" lon="-1.09249">
        <ele>16</ele>
        <time>2015-05-04T08:59:11.000Z</time>
      </trkpt>
      <trkpt lat="46.20553" lon="-1.09272">
        <ele>16.8</ele>
        <time>2015-05-04T08:59:22.000Z</time>
      </trkpt>
      <trkpt lat="46.20556" lon="-1.09296">
        <ele>17</ele>
        <time>2015-05-04T08:59:33.000Z</time>
      </trkpt>
      <trkpt lat="46.2056" lon="-1.09315">
        <ele>17</ele>
        <time>2015-05-04T08:59:42.000Z</time>
      </trkpt>
      <trkpt lat="46.20563" lon="-1.09335">
        <ele>17</ele>
        <time>2015-05-04T08:59:52.000Z</time>
      </trkpt>
      <trkpt lat="46.20566" lon="-1.09358">
        <ele>17</ele>
        <time>2015-05-04T09:00:03.000Z</time>
      </trkpt>
      <trkpt lat="46.2057" lon="-1.09381">
        <ele>17</ele>
        <time>2015-05-04T09:00:14.000Z</time>
      </trkpt>
      <trkpt lat="46.20576" lon="-1.09396">
        <ele>17</ele>
        <time>2015-05-04T09:00:22.000Z</time>
      </trkpt>
      <trkpt lat="46.20578" lon="-1.09411">
        <ele>17</ele>
        <time>2015-05-04T09:00:29.000Z</time>
      </trkpt>
      <trkpt lat="46.20579" lon="-1.09427">
        <ele>17.3</ele>
        <time>2015-05-04T09:00:37.000Z</time>
      </trkpt>
      <trkpt lat="46.20579" lon="-1.09446">
        <ele>17.8</ele>
        <time>2015-05-04T09:00:46.000Z</time>
      </trkpt>
      <trkpt lat="46.2058" lon="-1.09466">
        <ele>18</ele>
        <time>2015-05-04T09:00:55.000Z</time>
      </trkpt>
      <trkpt lat="46.20581" lon="-1.09484">
        <ele>18</ele>
        <time>2015-05-04T09:01:03.000Z</time>
      </trkpt>
      <trkpt lat="46.20581" lon="-1.09488">
        <ele>18</ele>
        <time>2015-05-04T09:01:05.000Z</time>
      </trkpt>
      <trkpt lat="46.20587" lon="-1.09491">
        <ele>17.9</ele>
        <time>2015-05-04T09:01:10.000Z</time>
      </trkpt>
      <trkpt lat="46.20598" lon="-1.0949">
        <ele>17.5</ele>
        <time>2015-05-04T09:01:19.000Z</time>
      </trkpt>
    </trkseg>
  </trk>
</gpx>